Observation data for Andrews on 04/16/2021      Previous  Date  Next       Current Mesonet Observations  Soil Data  Daily Summary Page  Observations in Plain Language
KANS 160500Z 11008KT 11/11 A2987 RMK A01 T01060105  RH  100%=      5-min Rain = 0
KANS 160501Z 10007KT 11/11 A2987 RMK A01 T01050105  RH  100%=      5-min Rain = 0
KANS 160502Z 10006KT 11/11 A2987 RMK A01 T01050105  RH  100%=      5-min Rain = 0
KANS 160503Z 10007KT 11/11 A2987 RMK A01 T01050105  RH  100%=      5-min Rain = 0
KANS 160504Z 10007KT 11/11 A2987 RMK A01 T01050105  RH  100%=      5-min Rain = 0
KANS 160505Z 11006KT 11/11 A2987 RMK A01 T01050105  RH  100%=      5-min Rain = 0
KANS 160506Z 11005KT 11/11 A2987 RMK A01 T01050105  RH  100%=      5-min Rain = 0
KANS 160507Z 11005KT 11/11 A2987 RMK A01 T01050105  RH  100%=      5-min Rain = 0
KANS 160508Z 11006KT 11/11 A2987 RMK A01 T01050105  RH  100%=      5-min Rain = 0
KANS 160509Z 12006KT 11/11 A2987 RMK A01 T01050105  RH  100%=      5-min Rain = 0
KANS 160510Z 11006KT 11/11 A2987 RMK A01 T01050105  RH  100%=      5-min Rain = 0
KANS 160511Z 11006KT 11/11 A2987 RMK A01 T01050105  RH  100%=      5-min Rain = 0
KANS 160512Z 11006KT 11/11 A2987 RMK A01 T01050105  RH  100%=      5-min Rain = 0
KANS 160513Z 10006KT 11/11 A2987 RMK A01 T01050105  RH  100%=      5-min Rain = 0
KANS 160514Z 11005KT 11/11 A2987 RMK A01 T01050105  RH  100%=      5-min Rain = 0
KANS 160515Z 11006KT 11/11 A2987 RMK A01 T01060105  RH  100%=      5-min Rain = 0
KANS 160516Z 11006KT 11/11 A2987 RMK A01 T01060106  RH  100%=      5-min Rain = 0
KANS 160517Z 11006KT 11/11 A2987 RMK A01 T01060106  RH  100%=      5-min Rain = 0
KANS 160518Z 12007KT 11/11 A2987 RMK A01 T01060106  RH  100%=      5-min Rain = 0
KANS 160519Z 10007KT 11/11 A2987 RMK A01 T01060106  RH  100%=      5-min Rain = 0
KANS 160520Z 11007KT 11/11 A2987 RMK A01 T01060106  RH  100%=      5-min Rain = 0
KANS 160521Z 10006KT 11/11 A2986 RMK A01 T01060106  RH  100%=      5-min Rain = 0
KANS 160522Z 10005KT 11/11 A2986 RMK A01 T01060106  RH  100%=      5-min Rain = 0
KANS 160523Z 11006KT 11/11 A2987 RMK A01 T01060106  RH  100%=      5-min Rain = 0
KANS 160524Z 11006KT 11/11 A2986 RMK A01 T01060106  RH  100%=      5-min Rain = 0
KANS 160525Z 11006KT 11/11 A2986 RMK A01 T01060106  RH  100%=      5-min Rain = 0
KANS 160526Z 10005KT 11/11 A2986 RMK A01 T01060106  RH  100%=      5-min Rain = 0
KANS 160527Z 11005KT 11/11 A2986 RMK A01 T01060106  RH  100%=      5-min Rain = 0
KANS 160528Z 11006KT 11/11 A2986 RMK A01 T01060106  RH  100%=      5-min Rain = 0
KANS 160529Z 11006KT 11/11 A2986 RMK A01 T01060106  RH  100%=      5-min Rain = 0
KANS 160530Z 11005KT 11/11 A2986 RMK A01 T01060106  RH  100%=      5-min Rain = 0
KANS 160531Z 11007KT 11/11 A2986 RMK A01 T01060106  RH  100%=      5-min Rain = 0
KANS 160532Z 11006KT 11/11 A2986 RMK A01 T01060106  RH  100%=      5-min Rain = 0
KANS 160533Z 11006KT 11/11 A2986 RMK A01 T01060106  RH  100%=      5-min Rain = 0
KANS 160534Z 11006KT 11/11 A2986 RMK A01 T01060106  RH  100%=      5-min Rain = 0
KANS 160535Z 11005KT 11/11 A2986 RMK A01 T01060106  RH  100%=      5-min Rain = 0
KANS 160536Z 11008KT 11/11 A2986 RMK A01 T01060106  RH  100%=      5-min Rain = 0
KANS 160537Z 11007KT 11/11 A2986 RMK A01 T01060106  RH  100%=      5-min Rain = 0
KANS 160538Z 11006KT 11/11 A2986 RMK A01 T01060106  RH  100%=      5-min Rain = 0
KANS 160539Z 11007KT 11/11 A2986 RMK A01 T01060106  RH  100%=      5-min Rain = 0
KANS 160540Z 11007KT 11/11 A2986 RMK A01 T01060106  RH  100%=      5-min Rain = 0
KANS 160541Z 10007KT 11/11 A2986 RMK A01 T01060106  RH  100%=      5-min Rain = 0
KANS 160542Z 10006KT 11/11 A2986 RMK A01 T01060106  RH  100%=      5-min Rain = 0
KANS 160543Z 10006KT 11/11 A2986 RMK A01 T01060106  RH  100%=      5-min Rain = 0
KANS 160544Z 11005KT 11/11 A2986 RMK A01 T01060106  RH  100%=      5-min Rain = 0
KANS 160545Z 11005KT 11/11 A2986 RMK A01 T01060106  RH  100%=      5-min Rain = 0
KANS 160546Z 10004KT 11/11 A2986 RMK A01 T01060106  RH  100%=      5-min Rain = 0
KANS 160547Z 10004KT 11/11 A2986 RMK A01 T01070106  RH  100%=      5-min Rain = 0
KANS 160548Z 08002KT 11/11 A2986 RMK A01 T01070107  RH  100%=      5-min Rain = 0
KANS 160549Z 08003KT 11/11 A2986 RMK A01 T01070107  RH  100%=      5-min Rain = 0
KANS 160550Z 08003KT 11/11 A2986 RMK A01 T01070107  RH  100%=      5-min Rain = 0
KANS 160551Z 08004KT 11/11 A2986 RMK A01 T01070107  RH  100%=      5-min Rain = 0
KANS 160552Z 08003KT 11/11 A2987 RMK A01 T01070107  RH  100%=      5-min Rain = 0
KANS 160553Z 07004KT 11/11 A2987 RMK A01 T01070107  RH  100%=      5-min Rain = 0
KANS 160554Z 08004KT 11/11 A2987 RMK A01 T01070107  RH  100%=      5-min Rain = 0
KANS 160555Z 08004KT 11/11 A2986 RMK A01 T01070107  RH  100%=      5-min Rain = 0
KANS 160556Z 08004KT 11/11 A2986 RMK A01 T01070107  RH  100%=      5-min Rain = 0
KANS 160557Z 09004KT 11/11 A2986 RMK A01 T01070107  RH  100%=      5-min Rain = 0
KANS 160558Z 09004KT 11/11 A2986 RMK A01 T01070107  RH  100%=      5-min Rain = 0
KANS 160559Z 10004KT 11/11 A2986 RMK A01 T01070107  RH  100%=      5-min Rain = 0
KANS 160600Z 09004KT 11/11 A2986 RMK A01 T01070107  RH  100%=      5-min Rain = 0
KANS 160601Z 09004KT 11/11 A2986 RMK A01 T01060106  RH  100%=      5-min Rain = 0
KANS 160602Z 09003KT 11/11 A2986 RMK A01 T01060106  RH  100%=      5-min Rain = 0
KANS 160603Z 09003KT 11/11 A2986 RMK A01 T01060106  RH  100%=      5-min Rain = 0
KANS 160604Z 09003KT 11/11 A2986 RMK A01 T01070107  RH  100%=      5-min Rain = 0
KANS 160605Z 08005KT 11/11 A2986 RMK A01 T01070107  RH  100%=      5-min Rain = 0
KANS 160606Z 08005KT 11/11 A2986 RMK A01 T01070107  RH  100%=      5-min Rain = 0
KANS 160607Z 09005KT 11/11 A2986 RMK A01 T01070106  RH  100%=      5-min Rain = 0
KANS 160608Z 08004KT 11/11 A2986 RMK A01 T01060106  RH  100%=      5-min Rain = 0
KANS 160609Z 08005KT 11/11 A2986 RMK A01 T01060106  RH  100%=      5-min Rain = 0
KANS 160610Z 08004KT 11/11 A2986 RMK A01 T01060106  RH  100%=      5-min Rain = 0
KANS 160611Z 08004KT 11/11 A2986 RMK A01 T01060106  RH  100%=      5-min Rain = 0
KANS 160612Z 09003KT 11/11 A2986 RMK A01 T01060106  RH  100%=      5-min Rain = 0
KANS 160613Z 09003KT 11/11 A2986 RMK A01 T01060106  RH  100%=      5-min Rain = 0
KANS 160614Z 08003KT 11/11 A2986 RMK A01 T01060106  RH  100%=      5-min Rain = 0
KANS 160615Z 09004KT 11/11 A2986 RMK A01 T01070107  RH  100%=      5-min Rain = 0
KANS 160616Z 09004KT 11/11 A2986 RMK A01 T01070107  RH  100%=      5-min Rain = 0
KANS 160617Z 08003KT 11/11 A2986 RMK A01 T01070107  RH  100%=      5-min Rain = 0
KANS 160618Z 08004KT 11/11 A2986 RMK A01 T01070107  RH  100%=      5-min Rain = 0
KANS 160619Z 07003KT 11/11 A2986 RMK A01 T01070107  RH  100%=      5-min Rain = 0
KANS 160620Z 07004KT 11/11 A2986 RMK A01 T01070107  RH  100%=      5-min Rain = 0
KANS 160621Z 07004KT 11/11 A2986 RMK A01 T01070107  RH  100%=      5-min Rain = 0
KANS 160622Z 06003KT 11/11 A2986 RMK A01 T01070107  RH  100%=      5-min Rain = 0
KANS 160623Z 07003KT 11/11 A2986 RMK A01 T01070107  RH  100%=      5-min Rain = 0
KANS 160624Z 07003KT 11/11 A2986 RMK A01 T01070107  RH  100%=      5-min Rain = 0
KANS 160625Z 08003KT 11/11 A2986 RMK A01 T01070107  RH  100%=      5-min Rain = 0
KANS 160626Z 07003KT 11/11 A2986 RMK A01 T01070107  RH  100%=      5-min Rain = 0
KANS 160627Z 09003KT 11/11 A2986 RMK A01 T01060106  RH  100%=      5-min Rain = 0
KANS 160628Z 08004KT 11/11 A2986 RMK A01 T01060106  RH  100%=      5-min Rain = 0
KANS 160629Z 08003KT 11/11 A2986 RMK A01 T01060106  RH  100%=      5-min Rain = 0
KANS 160630Z 08003KT 11/11 A2986 RMK A01 T01060106  RH  100%=      5-min Rain = 0
KANS 160631Z 08003KT 11/11 A2986 RMK A01 T01060106  RH  100%=      5-min Rain = 0
KANS 160632Z 08003KT 11/11 A2986 RMK A01 T01060106  RH  100%=      5-min Rain = 0
KANS 160633Z 08003KT 11/11 A2986 RMK A01 T01060106  RH  100%=      5-min Rain = 0
KANS 160634Z 07004KT 11/11 A2986 RMK A01 T01060106  RH  100%=      5-min Rain = 0
KANS 160635Z 08004KT 11/11 A2986 RMK A01 T01060106  RH  100%=      5-min Rain = 0
KANS 160636Z 08003KT 11/11 A2986 RMK A01 T01060106  RH  100%=      5-min Rain = 0
KANS 160637Z 07004KT 11/11 A2986 RMK A01 T01060106  RH  100%=      5-min Rain = 0
KANS 160638Z 08004KT 11/11 A2986 RMK A01 T01060106  RH  100%=      5-min Rain = 0
KANS 160639Z 08003KT 11/11 A2986 RMK A01 T01060106  RH  100%=      5-min Rain = 0
KANS 160640Z 09003KT 11/11 A2985 RMK A01 T01060106  RH  100%=      5-min Rain = 0
KANS 160641Z 08003KT 11/11 A2985 RMK A01 T01060106  RH  100%=      5-min Rain = 0
KANS 160642Z 09004KT 11/11 A2985 RMK A01 T01060106  RH  100%=      5-min Rain = 0
KANS 160643Z 09004KT 11/11 A2985 RMK A01 T01060106  RH  100%=      5-min Rain = 0
KANS 160644Z 09004KT 11/11 A2985 RMK A01 T01060106  RH  100%=      5-min Rain = 0
KANS 160645Z 09004KT 11/11 A2985 RMK A01 T01060106  RH  100%=      5-min Rain = 0
KANS 160646Z 09004KT 11/11 A2986 RMK A01 T01060106  RH  100%=      5-min Rain = 0
KANS 160647Z 09004KT 11/11 A2986 RMK A01 T01060106  RH  100%=      5-min Rain = 0
KANS 160648Z 08003KT 11/11 A2985 RMK A01 T01060106  RH  100%=      5-min Rain = 0
KANS 160649Z 09003KT 11/11 A2985 RMK A01 T01060106  RH  100%=      5-min Rain = 0
KANS 160650Z 10003KT 11/11 A2985 RMK A01 T01060106  RH  100%=      5-min Rain = 0
KANS 160651Z 10004KT 11/11 A2985 RMK A01 T01060106  RH  100%=      5-min Rain = 0
KANS 160652Z 11004KT 11/11 A2985 RMK A01 T01060106  RH  100%=      5-min Rain = 0
KANS 160653Z 10004KT 11/11 A2985 RMK A01 T01060106  RH  100%=      5-min Rain = 0
KANS 160654Z 10004KT 11/11 A2985 RMK A01 T01060106  RH  100%=      5-min Rain = 0
KANS 160655Z 11005KT 11/11 A2985 RMK A01 T01060106  RH  100%=      5-min Rain = 0
KANS 160656Z 11004KT 11/11 A2985 RMK A01 T01060106  RH  100%=      5-min Rain = 0
KANS 160657Z 12004KT 11/11 A2985 RMK A01 T01060106  RH  100%=      5-min Rain = 0
KANS 160658Z 11005KT 11/11 A2985 RMK A01 T01060106  RH  100%=      5-min Rain = 0
KANS 160659Z 11006KT 11/11 A2985 RMK A01 T01060106  RH  100%=      5-min Rain = 0
KANS 160700Z 12006KT 11/11 A2985 RMK A01 T01060106  RH  100%=      5-min Rain = 0
KANS 160701Z 12005KT 11/11 A2984 RMK A01 T01060106  RH  100%=      5-min Rain = 0
KANS 160702Z 11005KT 11/11 A2984 RMK A01 T01060106  RH  100%=      5-min Rain = 0
KANS 160703Z 11004KT 11/11 A2984 RMK A01 T01060106  RH  100%=      5-min Rain = 0
KANS 160704Z 11004KT 11/11 A2984 RMK A01 T01060106  RH  100%=      5-min Rain = 0
KANS 160705Z 12003KT 11/11 A2984 RMK A01 T01060106  RH  100%=      5-min Rain = 0
KANS 160706Z 12004KT 11/11 A2984 RMK A01 T01060106  RH  100%=      5-min Rain = 0
KANS 160707Z 12004KT 11/11 A2984 RMK A01 T01060106  RH  100%=      5-min Rain = 0
KANS 160708Z 12003KT 11/11 A2984 RMK A01 T01060106  RH  100%=      5-min Rain = 0
KANS 160709Z 12004KT 11/11 A2984 RMK A01 T01060106  RH  100%=      5-min Rain = 0
KANS 160710Z 12004KT 11/11 A2984 RMK A01 T01060106  RH  100%=      5-min Rain = 0
KANS 160711Z 13004KT 11/11 A2984 RMK A01 T01060106  RH  100%=      5-min Rain = 0
KANS 160712Z 12003KT 11/11 A2984 RMK A01 T01060106  RH  100%=      5-min Rain = 0
KANS 160713Z 11004KT 11/11 A2984 RMK A01 T01060106  RH  100%=      5-min Rain = 0
KANS 160714Z 10004KT 11/11 A2984 RMK A01 T01060106  RH  100%=      5-min Rain = 0
KANS 160715Z 11004KT 11/11 A2984 RMK A01 T01060106  RH  100%=      5-min Rain = 0
KANS 160716Z 11004KT 11/11 A2984 RMK A01 T01060106  RH  100%=      5-min Rain = 0
KANS 160717Z 13003KT 11/11 A2984 RMK A01 T01070107  RH  100%=      5-min Rain = 0
KANS 160718Z 13003KT 11/11 A2984 RMK A01 T01070107  RH  100%=      5-min Rain = 0
KANS 160719Z 11003KT 11/11 A2984 RMK A01 T01070107  RH  100%=      5-min Rain = 0
KANS 160720Z 12003KT 11/11 A2984 RMK A01 T01070107  RH  100%=      5-min Rain = 0
KANS 160721Z 12004KT 11/11 A2984 RMK A01 T01070107  RH  100%=      5-min Rain = 0
KANS 160722Z 12005KT 11/11 A2984 RMK A01 T01070107  RH  100%=      5-min Rain = 0
KANS 160723Z 12004KT 11/11 A2984 RMK A01 T01070107  RH  100%=      5-min Rain = 0
KANS 160724Z 11003KT 11/11 A2984 RMK A01 T01070107  RH  100%=      5-min Rain = 0
KANS 160725Z 11003KT 11/11 A2984 RMK A01 T01070107  RH  100%=      5-min Rain = 0
KANS 160726Z 11003KT 11/11 A2984 RMK A01 T01070107  RH  100%=      5-min Rain = 0
KANS 160727Z 12003KT 11/11 A2984 RMK A01 T01070107  RH  100%=      5-min Rain = 0
KANS 160728Z 11004KT 11/11 A2984 RMK A01 T01070107  RH  100%=      5-min Rain = 0
KANS 160729Z 10003KT 11/11 A2984 RMK A01 T01070107  RH  100%=      5-min Rain = 0
KANS 160730Z 09003KT 11/11 A2984 RMK A01 T01070107  RH  100%=      5-min Rain = 0
KANS 160731Z 09003KT 11/11 A2984 RMK A01 T01070107  RH  100%=      5-min Rain = 0
KANS 160732Z 08002KT 11/11 A2984 RMK A01 T01070107  RH  100%=      5-min Rain = 0
KANS 160733Z 09003KT 11/11 A2984 RMK A01 T01070107  RH  100%=      5-min Rain = 0
KANS 160734Z 09002KT 11/11 A2984 RMK A01 T01070107  RH  100%=      5-min Rain = 0
KANS 160735Z 08002KT 11/11 A2984 RMK A01 T01070107  RH  100%=      5-min Rain = 0
KANS 160736Z 06002KT 11/11 A2984 RMK A01 T01070107  RH  100%=      5-min Rain = 0
KANS 160737Z 07003KT 11/11 A2984 RMK A01 T01070107  RH  100%=      5-min Rain = 0
KANS 160738Z 08002KT 11/11 A2984 RMK A01 T01070107  RH  100%=      5-min Rain = 0
KANS 160739Z 08002KT 11/11 A2984 RMK A01 T01070107  RH  100%=      5-min Rain = 0
KANS 160740Z 08002KT 11/11 A2984 RMK A01 T01070107  RH  100%=      5-min Rain = 0
KANS 160741Z 07002KT 11/11 A2984 RMK A01 T01070107  RH  100%=      5-min Rain = 0
KANS 160742Z 08003KT 11/11 A2984 RMK A01 T01080108  RH  100%=      5-min Rain = 0
KANS 160743Z 09002KT 11/11 A2984 RMK A01 T01070107  RH  100%=      5-min Rain = 0
KANS 160744Z 08001KT 11/11 A2984 RMK A01 T01070107  RH  100%=      5-min Rain = 0.01
KANS 160745Z 05001KT 11/11 A2984 RMK A01 T01070107  RH  100%=      5-min Rain = 0
KANS 160746Z 05002KT 11/11 A2984 RMK A01 T01070107  RH  100%=      5-min Rain = 0
KANS 160747Z 04002KT 11/11 A2984 RMK A01 T01070107  RH  100%=      5-min Rain = 0
KANS 160748Z 05002KT 11/11 A2984 RMK A01 T01070107  RH  100%=      5-min Rain = 0
KANS 160749Z 05002KT 11/11 A2984 RMK A01 T01070107  RH  100%=      5-min Rain = 0
KANS 160750Z 05002KT 11/11 A2984 RMK A01 T01070107  RH  100%=      5-min Rain = 0
KANS 160751Z 06002KT 11/11 A2984 RMK A01 T01070107  RH  100%=      5-min Rain = 0
KANS 160752Z 07003KT 11/11 A2984 RMK A01 T01070107  RH  100%=      5-min Rain = 0
KANS 160753Z 06003KT 11/11 A2984 RMK A01 T01070107  RH  100%=      5-min Rain = 0
KANS 160754Z 06003KT 11/11 A2984 RMK A01 T01080108  RH  100%=      5-min Rain = 0
KANS 160755Z 06002KT 11/11 A2984 RMK A01 T01080108  RH  100%=      5-min Rain = 0
KANS 160756Z 06003KT 11/11 A2984 RMK A01 T01080108  RH  100%=      5-min Rain = 0
KANS 160757Z 06003KT 11/11 A2984 RMK A01 T01080108  RH  100%=      5-min Rain = 0
KANS 160758Z 06004KT 11/11 A2984 RMK A01 T01080108  RH  100%=      5-min Rain = 0
KANS 160759Z 07004KT 11/11 A2983 RMK A01 T01080108  RH  100%=      5-min Rain = 0
KANS 160800Z 08004KT 11/11 A2983 RMK A01 T01080108  RH  100%=      5-min Rain = 0
KANS 160801Z 09004KT 11/11 A2983 RMK A01 T01080108  RH  100%=      5-min Rain = 0
KANS 160802Z 08004KT 11/11 A2983 RMK A01 T01080108  RH  100%=      5-min Rain = 0
KANS 160803Z 09003KT 11/11 A2983 RMK A01 T01080108  RH  100%=      5-min Rain = 0
KANS 160804Z 06002KT 11/11 A2983 RMK A01 T01080108  RH  100%=      5-min Rain = 0
KANS 160805Z 07002KT 11/11 A2983 RMK A01 T01080108  RH  100%=      5-min Rain = 0
KANS 160806Z 07002KT 11/11 A2983 RMK A01 T01080108  RH  100%=      5-min Rain = 0
KANS 160807Z 07002KT 11/11 A2983 RMK A01 T01080108  RH  100%=      5-min Rain = 0
KANS 160808Z 08003KT 11/11 A2983 RMK A01 T01080108  RH  100%=      5-min Rain = 0
KANS 160809Z 09003KT 11/11 A2983 RMK A01 T01080108  RH  100%=      5-min Rain = 0
KANS 160810Z 11004KT 11/11 A2983 RMK A01 T01080108  RH  100%=      5-min Rain = 0
KANS 160811Z 10004KT 11/11 A2983 RMK A01 T01080108  RH  100%=      5-min Rain = 0
KANS 160812Z 11003KT 11/11 A2983 RMK A01 T01080108  RH  100%=      5-min Rain = 0
KANS 160813Z 11003KT 11/11 A2983 RMK A01 T01080108  RH  100%=      5-min Rain = 0
KANS 160814Z 09003KT 11/11 A2983 RMK A01 T01080108  RH  100%=      5-min Rain = 0
KANS 160815Z 09003KT 11/11 A2983 RMK A01 T01080108  RH  100%=      5-min Rain = 0
KANS 160816Z 08003KT 11/11 A2983 RMK A01 T01080108  RH  100%=      5-min Rain = 0
KANS 160817Z 05002KT 11/11 A2983 RMK A01 T01080108  RH  100%=      5-min Rain = 0
KANS 160818Z 04002KT 11/11 A2983 RMK A01 T01080108  RH  100%=      5-min Rain = 0
KANS 160819Z 05003KT 11/11 A2983 RMK A01 T01080108  RH  100%=      5-min Rain = 0
KANS 160820Z 07003KT 11/11 A2983 RMK A01 T01080108  RH  100%=      5-min Rain = 0
KANS 160821Z 09003KT 11/11 A2983 RMK A01 T01080108  RH  100%=      5-min Rain = 0
KANS 160822Z 11004KT 11/11 A2983 RMK A01 T01080108  RH  100%=      5-min Rain = 0
KANS 160823Z 12004KT 11/11 A2983 RMK A01 T01080108  RH  100%=      5-min Rain = 0
KANS 160824Z 11004KT 11/11 A2983 RMK A01 T01080108  RH  100%=      5-min Rain = 0
KANS 160825Z 11003KT 11/11 A2983 RMK A01 T01080108  RH  100%=      5-min Rain = 0
KANS 160826Z 10001KT 11/11 A2983 RMK A01 T01080108  RH  100%=      5-min Rain = 0
KANS 160827Z 07002KT 11/11 A2983 RMK A01 T01080108  RH  100%=      5-min Rain = 0
KANS 160828Z 06001KT 11/11 A2983 RMK A01 T01080108  RH  100%=      5-min Rain = 0
KANS 160829Z 04000KT 11/11 A2983 RMK A01 T01080108  RH  100%=      5-min Rain = 0
KANS 160830Z 06001KT 11/11 A2983 RMK A01 T01080108  RH  100%=      5-min Rain = 0
KANS 160831Z 09002KT 11/11 A2983 RMK A01 T01080108  RH  100%=      5-min Rain = 0
KANS 160832Z 10003KT 11/11 A2982 RMK A01 T01080108  RH  100%=      5-min Rain = 0
KANS 160833Z 10003KT 11/11 A2982 RMK A01 T01080108  RH  100%=      5-min Rain = 0
KANS 160834Z 11002KT 11/11 A2982 RMK A01 T01080108  RH  100%=      5-min Rain = 0
KANS 160835Z 12002KT 11/11 A2982 RMK A01 T01080108  RH  100%=      5-min Rain = 0
KANS 160836Z 11002KT 11/11 A2982 RMK A01 T01080108  RH  100%=      5-min Rain = 0
KANS 160837Z 10003KT 11/11 A2982 RMK A01 T01080108  RH  100%=      5-min Rain = 0
KANS 160838Z 11002KT 11/11 A2982 RMK A01 T01080108  RH  100%=      5-min Rain = 0
KANS 160839Z 11002KT 11/11 A2982 RMK A01 T01080108  RH  100%=      5-min Rain = 0
KANS 160840Z 11002KT 11/11 A2982 RMK A01 T01080108  RH  100%=      5-min Rain = 0
KANS 160841Z 12002KT 11/11 A2982 RMK A01 T01080108  RH  100%=      5-min Rain = 0
KANS 160842Z 12002KT 11/11 A2982 RMK A01 T01080108  RH  100%=      5-min Rain = 0
KANS 160843Z 12003KT 11/11 A2982 RMK A01 T01080108  RH  100%=      5-min Rain = 0
KANS 160844Z 12002KT 11/11 A2982 RMK A01 T01080108  RH  100%=      5-min Rain = 0
KANS 160845Z 12002KT 11/11 A2982 RMK A01 T01080108  RH  100%=      5-min Rain = 0
KANS 160846Z 12002KT 11/11 A2982 RMK A01 T01080108  RH  100%=      5-min Rain = 0
KANS 160847Z 12001KT 11/11 A2982 RMK A01 T01080108  RH  100%=      5-min Rain = 0
KANS 160848Z 13001KT 11/11 A2982 RMK A01 T01080108  RH  100%=      5-min Rain = 0
KANS 160849Z 14001KT 11/11 A2982 RMK A01 T01080108  RH  100%=      5-min Rain = 0
KANS 160850Z 12001KT 11/11 A2982 RMK A01 T01080108  RH  100%=      5-min Rain = 0
KANS 160851Z 09001KT 11/11 A2982 RMK A01 T01080108  RH  100%=      5-min Rain = 0
KANS 160852Z 09002KT 11/11 A2982 RMK A01 T01080108  RH  100%=      5-min Rain = 0
KANS 160853Z 09001KT 11/11 A2982 RMK A01 T01080108  RH  100%=      5-min Rain = 0
KANS 160854Z 10002KT 11/11 A2982 RMK A01 T01080108  RH  100%=      5-min Rain = 0
KANS 160855Z 10001KT 11/11 A2982 RMK A01 T01080108  RH  100%=      5-min Rain = 0
KANS 160856Z 10001KT 11/11 A2982 RMK A01 T01080108  RH  100%=      5-min Rain = 0
KANS 160857Z 10001KT 11/11 A2982 RMK A01 T01080108  RH  100%=      5-min Rain = 0
KANS 160858Z 12001KT 11/11 A2982 RMK A01 T01080108  RH  100%=      5-min Rain = 0
KANS 160859Z 13001KT 11/11 A2982 RMK A01 T01080108  RH  100%=      5-min Rain = 0
KANS 160900Z 13001KT 11/11 A2982 RMK A01 T01080108  RH  100%=      5-min Rain = 0
KANS 160901Z 13001KT 11/11 A2982 RMK A01 T01080108  RH  100%=      5-min Rain = 0
KANS 160902Z 15001KT 11/11 A2982 RMK A01 T01080108  RH  100%=      5-min Rain = 0
KANS 160903Z 15001KT 11/11 A2982 RMK A01 T01080108  RH  100%=      5-min Rain = 0
KANS 160904Z 15001KT 11/11 A2982 RMK A01 T01080108  RH  100%=      5-min Rain = 0
KANS 160905Z 15001KT 11/11 A2982 RMK A01 T01080108  RH  100%=      5-min Rain = 0
KANS 160906Z 13001KT 11/11 A2982 RMK A01 T01080108  RH  100%=      5-min Rain = 0
KANS 160907Z 13001KT 11/11 A2982 RMK A01 T01080108  RH  100%=      5-min Rain = 0
KANS 160908Z 13001KT 11/11 A2982 RMK A01 T01080108  RH  100%=      5-min Rain = 0
KANS 160909Z 13001KT 11/11 A2982 RMK A01 T01080108  RH  100%=      5-min Rain = 0
KANS 160910Z 13001KT 11/11 A2982 RMK A01 T01080108  RH  100%=      5-min Rain = 0
KANS 160911Z 13001KT 11/11 A2982 RMK A01 T01080108  RH  100%=      5-min Rain = 0
KANS 160912Z 13001KT 11/11 A2982 RMK A01 T01080108  RH  100%=      5-min Rain = 0
KANS 160913Z 13001KT 11/11 A2982 RMK A01 T01080108  RH  100%=      5-min Rain = 0
KANS 160914Z 13000KT 11/11 A2982 RMK A01 T01080108  RH  100%=      5-min Rain = 0
KANS 160915Z 13000KT 11/11 A2982 RMK A01 T01080108  RH  100%=      5-min Rain = 0
KANS 160916Z 00000KT 11/11 A2982 RMK A01 T01080108  RH  100%=      5-min Rain = 0
KANS 160917Z 00000KT 11/11 A2982 RMK A01 T01080108  RH  100%=      5-min Rain = 0
KANS 160918Z 00000KT 11/11 A2982 RMK A01 T01080108  RH  100%=      5-min Rain = 0
KANS 160919Z 00000KT 11/11 A2982 RMK A01 T01080108  RH  100%=      5-min Rain = 0
KANS 160920Z 00000KT 11/11 A2982 RMK A01 T01080108  RH  100%=      5-min Rain = 0
KANS 160921Z 00000KT 11/11 A2982 RMK A01 T01080108  RH  100%=      5-min Rain = 0
KANS 160922Z 00000KT 11/11 A2982 RMK A01 T01080108  RH  100%=      5-min Rain = 0
KANS 160923Z 00000KT 11/11 A2982 RMK A01 T01080108  RH  100%=      5-min Rain = 0
KANS 160924Z 00000KT 11/11 A2982 RMK A01 T01080108  RH  100%=      5-min Rain = 0
KANS 160925Z 00000KT 11/11 A2982 RMK A01 T01080108  RH  100%=      5-min Rain = 0
KANS 160926Z 00000KT 11/11 A2982 RMK A01 T01080108  RH  100%=      5-min Rain = 0
KANS 160927Z 00000KT 11/11 A2982 RMK A01 T01080108  RH  100%=      5-min Rain = 0
KANS 160928Z 00000KT 11/11 A2982 RMK A01 T01080108  RH  100%=      5-min Rain = 0
KANS 160929Z 00000KT 11/11 A2982 RMK A01 T01080108  RH  100%=      5-min Rain = 0
KANS 160930Z 00000KT 11/11 A2982 RMK A01 T01080108  RH  100%=      5-min Rain = 0
KANS 160931Z 00000KT 11/11 A2982 RMK A01 T01080108  RH  100%=      5-min Rain = 0
KANS 160932Z 00000KT 11/11 A2982 RMK A01 T01080108  RH  100%=      5-min Rain = 0
KANS 160933Z 16000KT 11/11 A2982 RMK A01 T01080108  RH  100%=      5-min Rain = 0
KANS 160934Z 16001KT 11/11 A2982 RMK A01 T01080108  RH  100%=      5-min Rain = 0
KANS 160935Z 00000KT 11/11 A2982 RMK A01 T01090109  RH  100%=      5-min Rain = 0
KANS 160936Z 34000KT 11/11 A2982 RMK A01 T01090109  RH  100%=      5-min Rain = 0
KANS 160937Z 33001KT 11/11 A2982 RMK A01 T01090109  RH  100%=      5-min Rain = 0
KANS 160938Z 34001KT 11/11 A2982 RMK A01 T01090109  RH  100%=      5-min Rain = 0
KANS 160939Z 00000KT 11/11 A2982 RMK A01 T01090109  RH  100%=      5-min Rain = 0
KANS 160940Z 01000KT 11/11 A2982 RMK A01 T01090109  RH  100%=      5-min Rain = 0
KANS 160941Z 01002KT 11/11 A2982 RMK A01 T01090109  RH  100%=      5-min Rain = 0
KANS 160942Z 36003KT 11/11 A2982 RMK A01 T01090109  RH  100%=      5-min Rain = 0
KANS 160943Z 00004KT 11/11 A2982 RMK A01 T01090109  RH  100%=      5-min Rain = 0
KANS 160944Z 01004KT 11/11 A2982 RMK A01 T01090109  RH  100%=      5-min Rain = 0
KANS 160945Z 02004KT 11/11 A2982 RMK A01 T01090109  RH  100%=      5-min Rain = 0
KANS 160946Z 01004KT 11/11 A2982 RMK A01 T01090109  RH  100%=      5-min Rain = 0
KANS 160947Z 01004KT 11/11 A2982 RMK A01 T01090109  RH  100%=      5-min Rain = 0
KANS 160948Z 02003KT 11/11 A2982 RMK A01 T01090109  RH  100%=      5-min Rain = 0
KANS 160949Z 02004KT 11/11 A2982 RMK A01 T01090109  RH  100%=      5-min Rain = 0
KANS 160950Z 02004KT 11/11 A2982 RMK A01 T01090109  RH  100%=      5-min Rain = 0
KANS 160951Z 02004KT 11/11 A2982 RMK A01 T01090109  RH  100%=      5-min Rain = 0
KANS 160952Z 01004KT 11/11 A2982 RMK A01 T01090109  RH  100%=      5-min Rain = 0
KANS 160953Z 01005KT 11/11 A2982 RMK A01 T01090109  RH  100%=      5-min Rain = 0
KANS 160954Z 01004KT 11/11 A2982 RMK A01 T01090110  RH  100%=      5-min Rain = 0
KANS 160955Z 01005KT 11/11 A2982 RMK A01 T01090110  RH  100%=      5-min Rain = 0
KANS 160956Z 01005KT 11/11 A2982 RMK A01 T01090109  RH  100%=      5-min Rain = 0
KANS 160957Z 01005KT 11/11 A2982 RMK A01 T01090109  RH  100%=      5-min Rain = 0
KANS 160958Z 01005KT 11/11 A2982 RMK A01 T01090109  RH  100%=      5-min Rain = 0
KANS 160959Z 02004KT 11/11 A2982 RMK A01 T01090109  RH  100%=      5-min Rain = 0
KANS 161000Z 03003KT 11/11 A2982 RMK A01 T01090109  RH  100%=      5-min Rain = 0
KANS 161001Z 02003KT 11/11 A2982 RMK A01 T01090109  RH  100%=      5-min Rain = 0
KANS 161002Z 01002KT 11/11 A2982 RMK A01 T01090109  RH  100%=      5-min Rain = 0
KANS 161003Z 01004KT 11/11 A2982 RMK A01 T01090109  RH  100%=      5-min Rain = 0
KANS 161004Z 01003KT 11/11 A2982 RMK A01 T01090109  RH  100%=      5-min Rain = 0
KANS 161005Z 01003KT 11/11 A2982 RMK A01 T01090109  RH  100%=      5-min Rain = 0
KANS 161006Z 02004KT 11/11 A2982 RMK A01 T01090109  RH  100%=      5-min Rain = 0
KANS 161007Z 01004KT 11/11 A2982 RMK A01 T01090109  RH  100%=      5-min Rain = 0
KANS 161008Z 01004KT 11/11 A2982 RMK A01 T01090109  RH  100%=      5-min Rain = 0
KANS 161009Z 01003KT 11/11 A2982 RMK A01 T01090109  RH  100%=      5-min Rain = 0
KANS 161010Z 02003KT 11/11 A2982 RMK A01 T01090109  RH  100%=      5-min Rain = 0
KANS 161011Z 02003KT 11/11 A2982 RMK A01 T01090109  RH  100%=      5-min Rain = 0
KANS 161012Z 02003KT 11/11 A2982 RMK A01 T01090109  RH  100%=      5-min Rain = 0
KANS 161013Z 02003KT 11/11 A2982 RMK A01 T01090109  RH  100%=      5-min Rain = 0
KANS 161014Z 03004KT 11/11 A2982 RMK A01 T01090109  RH  100%=      5-min Rain = 0
KANS 161015Z 02003KT 11/11 A2982 RMK A01 T01090109  RH  100%=      5-min Rain = 0
KANS 161016Z 01003KT 11/11 A2982 RMK A01 T01090109  RH  100%=      5-min Rain = 0
KANS 161017Z 01004KT 11/11 A2982 RMK A01 T01090109  RH  100%=      5-min Rain = 0
KANS 161018Z 02003KT 11/11 A2982 RMK A01 T01090109  RH  100%=      5-min Rain = 0
KANS 161019Z 03003KT 11/11 A2982 RMK A01 T01090109  RH  100%=      5-min Rain = 0
KANS 161020Z 03003KT 11/11 A2982 RMK A01 T01090109  RH  100%=      5-min Rain = 0
KANS 161021Z 03003KT 11/11 A2982 RMK A01 T01090109  RH  100%=      5-min Rain = 0
KANS 161022Z 03004KT 11/11 A2982 RMK A01 T01090109  RH  100%=      5-min Rain = 0
KANS 161023Z 03003KT 11/11 A2982 RMK A01 T01090109  RH  100%=      5-min Rain = 0
KANS 161024Z 03003KT 11/11 A2982 RMK A01 T01090109  RH  100%=      5-min Rain = 0
KANS 161025Z 03003KT 11/11 A2981 RMK A01 T01090109  RH  100%=      5-min Rain = 0
KANS 161026Z 03003KT 11/11 A2981 RMK A01 T01090109  RH  100%=      5-min Rain = 0
KANS 161027Z 03003KT 11/11 A2982 RMK A01 T01090109  RH  100%=      5-min Rain = 0
KANS 161028Z 03003KT 11/11 A2982 RMK A01 T01090109  RH  100%=      5-min Rain = 0
KANS 161029Z 04002KT 11/11 A2982 RMK A01 T01090109  RH  100%=      5-min Rain = 0
KANS 161030Z 04003KT 11/11 A2982 RMK A01 T01090109  RH  100%=      5-min Rain = 0
KANS 161031Z 03003KT 11/11 A2982 RMK A01 T01090109  RH  100%=      5-min Rain = 0
KANS 161032Z 03003KT 11/11 A2982 RMK A01 T01090109  RH  100%=      5-min Rain = 0
KANS 161033Z 02003KT 11/11 A2982 RMK A01 T01080109  RH  100%=      5-min Rain = 0
KANS 161034Z 03005KT 11/11 A2982 RMK A01 T01090109  RH  100%=      5-min Rain = 0
KANS 161035Z 01005KT 11/11 A2982 RMK A01 T01090109  RH  100%=      5-min Rain = 0
KANS 161036Z 01007KT 11/11 A2983 RMK A01 T01090109  RH  100%=      5-min Rain = 0
KANS 161037Z 36009KT 11/11 A2983 RMK A01 T01090109  RH  100%=      5-min Rain = 0
KANS 161038Z 35010KT 11/11 A2984 RMK A01 T01090109  RH  100%=      5-min Rain = 0
KANS 161039Z 35009KT 11/11 A2984 RMK A01 T01090109  RH  100%=      5-min Rain = 0
KANS 161040Z 35008KT 11/11 A2984 RMK A01 T01090109  RH  100%=      5-min Rain = 0
KANS 161041Z 36008KT 11/11 A2983 RMK A01 T01090109  RH  100%=      5-min Rain = 0
KANS 161042Z 36005KT 11/11 A2983 RMK A01 T01090109  RH  100%=      5-min Rain = 0
KANS 161043Z 36006KT 11/11 A2983 RMK A01 T01090109  RH  100%=      5-min Rain = 0
KANS 161044Z 35006KT 11/11 A2983 RMK A01 T01090109  RH  100%=      5-min Rain = 0
KANS 161045Z 35010KT 11/11 A2984 RMK A01 T01090109  RH  100%=      5-min Rain = 0
KANS 161046Z 35012KT 11/11 A2984 RMK A01 T01090109  RH  100%=      5-min Rain = 0
KANS 161047Z 35010KT 11/11 A2984 RMK A01 T01090109  RH  100%=      5-min Rain = 0
KANS 161048Z 35010KT 11/11 A2984 RMK A01 T01090109  RH  100%=      5-min Rain = 0
KANS 161049Z 36010KT 11/11 A2984 RMK A01 T01080108  RH  100%=      5-min Rain = 0
KANS 161050Z 35008KT 11/11 A2983 RMK A01 T01080108  RH  100%=      5-min Rain = 0
KANS 161051Z 36009KT 11/11 A2984 RMK A01 T01070107  RH  100%=      5-min Rain = 0
KANS 161052Z 36009KT 11/11 A2984 RMK A01 T01070107  RH  100%=      5-min Rain = 0
KANS 161053Z 35011KT 11/11 A2984 RMK A01 T01070107  RH  100%=      5-min Rain = 0
KANS 161054Z 35010KT 11/11 A2985 RMK A01 T01070107  RH  100%=      5-min Rain = 0
KANS 161055Z 35012KT 11/11 A2984 RMK A01 T01070107  RH  100%=      5-min Rain = 0
KANS 161056Z 35011KT 11/11 A2984 RMK A01 T01070107  RH  100%=      5-min Rain = 0
KANS 161057Z 35009KT 11/11 A2984 RMK A01 T01070107  RH  100%=      5-min Rain = 0
KANS 161058Z 35010KT 11/11 A2985 RMK A01 T01070107  RH  100%=      5-min Rain = 0
KANS 161059Z 35011KT 11/11 A2985 RMK A01 T01070107  RH  100%=      5-min Rain = 0
KANS 161100Z 35012KT 11/11 A2985 RMK A01 T01070107  RH  100%=      5-min Rain = 0
KANS 161101Z 35015KT 11/11 A2985 RMK A01 T01070107  RH  100%=      5-min Rain = 0
KANS 161102Z 35013KT 11/11 A2985 RMK A01 T01070107  RH  100%=      5-min Rain = 0
KANS 161103Z 36011KT 11/11 A2984 RMK A01 T01070107  RH  100%=      5-min Rain = 0
KANS 161104Z 00010KT 11/11 A2984 RMK A01 T01060106  RH  100%=      5-min Rain = 0.01
KANS 161105Z 36011KT 11/11 A2985 RMK A01 T01060106  RH  100%=      5-min Rain = 0
KANS 161106Z 35013KT 11/11 A2985 RMK A01 T01060106  RH  100%=      5-min Rain = 0
KANS 161107Z 36013KT 11/11 A2985 RMK A01 T01060106  RH  100%=      5-min Rain = 0
KANS 161108Z 36013G18KT 11/11 A2985 RMK A01 T01060106  RH  100%=      5-min Rain = 0
KANS 161109Z 36012KT 11/11 A2985 RMK A01 T01060106  RH  100%=      5-min Rain = 0
KANS 161110Z 36008KT 11/11 A2985 RMK A01 T01060106  RH  100%=      5-min Rain = 0
KANS 161111Z 35008KT 11/11 A2984 RMK A01 T01060106  RH  100%=      5-min Rain = 0
KANS 161112Z 35008KT 11/11 A2985 RMK A01 T01060106  RH  100%=      5-min Rain = 0
KANS 161113Z 36011KT 11/11 A2985 RMK A01 T01060106  RH  100%=      5-min Rain = 0
KANS 161114Z 36011KT 11/11 A2985 RMK A01 T01060106  RH  100%=      5-min Rain = 0
KANS 161115Z 36013KT 11/11 A2985 RMK A01 T01070107  RH  100%=      5-min Rain = 0
KANS 161116Z 00013KT 11/11 A2985 RMK A01 T01070107  RH  100%=      5-min Rain = 0
KANS 161117Z 35010KT 11/11 A2985 RMK A01 T01070107  RH  100%=      5-min Rain = 0
KANS 161118Z 36007KT 11/11 A2984 RMK A01 T01070107  RH  100%=      5-min Rain = 0
KANS 161119Z 00008KT 11/11 A2984 RMK A01 T01070107  RH  100%=      5-min Rain = 0
KANS 161120Z 36010KT 11/11 A2985 RMK A01 T01060106  RH  100%=      5-min Rain = 0
KANS 161121Z 36011KT 11/11 A2985 RMK A01 T01060106  RH  100%=      5-min Rain = 0
KANS 161122Z 36010KT 11/11 A2986 RMK A01 T01060107  RH  100%=      5-min Rain = 0
KANS 161123Z 36010KT 11/11 A2985 RMK A01 T01070107  RH  100%=      5-min Rain = 0
KANS 161124Z 36009KT 11/11 A2985 RMK A01 T01070107  RH  100%=      5-min Rain = 0
KANS 161125Z 35006KT 11/11 A2985 RMK A01 T01070107  RH  100%=      5-min Rain = 0
KANS 161126Z 36009KT 11/11 A2985 RMK A01 T01070107  RH  100%=      5-min Rain = 0
KANS 161127Z 35009KT 11/11 A2985 RMK A01 T01070107  RH  100%=      5-min Rain = 0
KANS 161128Z 35011KT 11/11 A2986 RMK A01 T01070107  RH  100%=      5-min Rain = 0
KANS 161129Z 35012KT 11/11 A2985 RMK A01 T01070107  RH  100%=      5-min Rain = 0
KANS 161130Z 36010KT 11/11 A2985 RMK A01 T01070107  RH  100%=      5-min Rain = 0
KANS 161131Z 35006KT 11/11 A2985 RMK A01 T01070107  RH  100%=      5-min Rain = 0
KANS 161132Z 35007KT 11/11 A2985 RMK A01 T01070107  RH  100%=      5-min Rain = 0
KANS 161133Z 35010KT 11/11 A2985 RMK A01 T01070107  RH  100%=      5-min Rain = 0
KANS 161134Z 36010KT 11/11 A2986 RMK A01 T01070107  RH  100%=      5-min Rain = 0
KANS 161135Z 36011KT 11/11 A2986 RMK A01 T01070107  RH  100%=      5-min Rain = 0
KANS 161136Z 36012KT 11/11 A2985 RMK A01 T01070107  RH  100%=      5-min Rain = 0
KANS 161137Z 36009KT 11/11 A2985 RMK A01 T01070107  RH  100%=      5-min Rain = 0
KANS 161138Z 36008KT 11/11 A2985 RMK A01 T01070107  RH  100%=      5-min Rain = 0
KANS 161139Z 36009KT 11/11 A2985 RMK A01 T01070107  RH  100%=      5-min Rain = 0
KANS 161140Z 36008KT 11/11 A2985 RMK A01 T01070107  RH  100%=      5-min Rain = 0
KANS 161141Z 36008KT 11/11 A2985 RMK A01 T01070107  RH  100%=      5-min Rain = 0
KANS 161142Z 00009KT 11/11 A2985 RMK A01 T01070107  RH  100%=      5-min Rain = 0
KANS 161143Z 36007KT 11/11 A2985 RMK A01 T01070107  RH  100%=      5-min Rain = 0
KANS 161144Z 36007KT 11/11 A2985 RMK A01 T01070107  RH  100%=      5-min Rain = 0
KANS 161145Z 00008KT 11/11 A2985 RMK A01 T01070107  RH  100%=      5-min Rain = 0
KANS 161146Z 36008KT 11/11 A2985 RMK A01 T01060106  RH  100%=      5-min Rain = 0
KANS 161147Z 00008KT 11/11 A2985 RMK A01 T01060106  RH  100%=      5-min Rain = 0
KANS 161148Z 00008KT 11/11 A2985 RMK A01 T01060106  RH  100%=      5-min Rain = 0
KANS 161149Z 00008KT 11/11 A2985 RMK A01 T01060106  RH  100%=      5-min Rain = 0
KANS 161150Z 01008KT 11/11 A2985 RMK A01 T01050105  RH  100%=      5-min Rain = 0
KANS 161151Z 00009KT 11/11 A2985 RMK A01 T01050105  RH  100%=      5-min Rain = 0
KANS 161152Z 00009KT 11/11 A2985 RMK A01 T01050105  RH  100%=      5-min Rain = 0
KANS 161153Z 00008KT 11/11 A2985 RMK A01 T01050105  RH  100%=      5-min Rain = 0
KANS 161154Z 01009KT 11/11 A2985 RMK A01 T01050105  RH  100%=      5-min Rain = 0
KANS 161155Z 00008KT 11/11 A2985 RMK A01 T01050105  RH  100%=      5-min Rain = 0
KANS 161156Z 01008KT 11/11 A2985 RMK A01 T01050105  RH  100%=      5-min Rain = 0
KANS 161157Z 01009KT 11/11 A2985 RMK A01 T01050105  RH  100%=      5-min Rain = 0
KANS 161158Z 01009KT 11/11 A2985 RMK A01 T01050105  RH  100%=      5-min Rain = 0
KANS 161159Z 01008KT 11/11 A2985 RMK A01 T01050105  RH  100%=      5-min Rain = 0
KANS 161200Z 01007KT 11/11 A2985 RMK A01 T01050105  RH  100%=      5-min Rain = 0
KANS 161201Z 01007KT 11/11 A2985 RMK A01 T01050105  RH  100%=      5-min Rain = 0
KANS 161202Z 02006KT 11/11 A2985 RMK A01 T01050105  RH  100%=      5-min Rain = 0
KANS 161203Z 01006KT 11/11 A2985 RMK A01 T01050105  RH  100%=      5-min Rain = 0
KANS 161204Z 02006KT 11/11 A2985 RMK A01 T01050105  RH  100%=      5-min Rain = 0
KANS 161205Z 02007KT 11/11 A2985 RMK A01 T01050105  RH  100%=      5-min Rain = 0
KANS 161206Z 01008KT 11/11 A2985 RMK A01 T01050105  RH  100%=      5-min Rain = 0
KANS 161207Z 01009KT 11/11 A2986 RMK A01 T01050105  RH  100%=      5-min Rain = 0
KANS 161208Z 01010KT 11/11 A2986 RMK A01 T01050105  RH  100%=      5-min Rain = 0
KANS 161209Z 01010KT 11/11 A2986 RMK A01 T01050105  RH  100%=      5-min Rain = 0
KANS 161210Z 01009KT 11/11 A2986 RMK A01 T01050105  RH  100%=      5-min Rain = 0
KANS 161211Z 01009KT 11/11 A2986 RMK A01 T01050105  RH  100%=      5-min Rain = 0
KANS 161212Z 01009KT 10/10 A2986 RMK A01 T01040104  RH  100%=      5-min Rain = 0
KANS 161213Z 01009KT 10/10 A2986 RMK A01 T01040104  RH  100%=      5-min Rain = 0
KANS 161214Z 01008KT 10/10 A2986 RMK A01 T01040104  RH  100%=      5-min Rain = 0
KANS 161215Z 01007KT 10/10 A2986 RMK A01 T01040104  RH  100%=      5-min Rain = 0
KANS 161216Z 02006KT 10/10 A2986 RMK A01 T01040104  RH  100%=      5-min Rain = 0
KANS 161217Z 01007KT 10/10 A2986 RMK A01 T01040104  RH  100%=      5-min Rain = 0
KANS 161218Z 01006KT 10/10 A2986 RMK A01 T01040104  RH  100%=      5-min Rain = 0
KANS 161219Z 01006KT 11/11 A2986 RMK A01 T01050105  RH  100%=      5-min Rain = 0
KANS 161220Z 01006KT 11/11 A2986 RMK A01 T01050105  RH  100%=      5-min Rain = 0
KANS 161221Z 01008KT 11/11 A2986 RMK A01 T01050105  RH  100%=      5-min Rain = 0
KANS 161222Z 01010KT 11/11 A2986 RMK A01 T01050105  RH  100%=      5-min Rain = 0
KANS 161223Z 02009KT 11/11 A2986 RMK A01 T01050105  RH  100%=      5-min Rain = 0
KANS 161224Z 02010KT 11/11 A2986 RMK A01 T01050105  RH  100%=      5-min Rain = 0
KANS 161225Z 01009KT 11/11 A2986 RMK A01 T01050105  RH  100%=      5-min Rain = 0
KANS 161226Z 02008KT 11/11 A2986 RMK A01 T01050105  RH  100%=      5-min Rain = 0
KANS 161227Z 02009KT 11/11 A2986 RMK A01 T01050105  RH  100%=      5-min Rain = 0
KANS 161228Z 02008KT 11/11 A2986 RMK A01 T01050105  RH  100%=      5-min Rain = 0
KANS 161229Z 02007KT 11/11 A2986 RMK A01 T01050105  RH  100%=      5-min Rain = 0
KANS 161230Z 01007KT 11/11 A2986 RMK A01 T01050105  RH  100%=      5-min Rain = 0
KANS 161231Z 02007KT 11/11 A2986 RMK A01 T01050105  RH  100%=      5-min Rain = 0
KANS 161232Z 02008KT 11/11 A2986 RMK A01 T01050105  RH  100%=      5-min Rain = 0
KANS 161233Z 02009KT 11/11 A2986 RMK A01 T01050105  RH  100%=      5-min Rain = 0
KANS 161234Z 02008KT 11/11 A2987 RMK A01 T01050105  RH  100%=      5-min Rain = 0
KANS 161235Z 02009KT 11/11 A2987 RMK A01 T01050105  RH  100%=      5-min Rain = 0
KANS 161236Z 02010KT 11/11 A2987 RMK A01 T01060106  RH  100%=      5-min Rain = 0
KANS 161237Z 01011KT 11/11 A2987 RMK A01 T01060106  RH  100%=      5-min Rain = 0
KANS 161238Z 02009KT 11/11 A2987 RMK A01 T01060106  RH  100%=      5-min Rain = 0
KANS 161239Z 02011KT 11/11 A2987 RMK A01 T01060106  RH  100%=      5-min Rain = 0
KANS 161240Z 02012KT 11/11 A2987 RMK A01 T01060106  RH  100%=      5-min Rain = 0
KANS 161241Z 02012KT 11/11 A2987 RMK A01 T01050105  RH  100%=      5-min Rain = 0
KANS 161242Z 02012KT 11/11 A2987 RMK A01 T01050105  RH  100%=      5-min Rain = 0
KANS 161243Z 01011KT 11/11 A2987 RMK A01 T01050105  RH  100%=      5-min Rain = 0
KANS 161244Z 02011KT 11/11 A2987 RMK A01 T01050105  RH  100%=      5-min Rain = 0
KANS 161245Z 02010KT 11/11 A2988 RMK A01 T01050105  RH  100%=      5-min Rain = 0
KANS 161246Z 02012KT 11/11 A2988 RMK A01 T01050105  RH  100%=      5-min Rain = 0
KANS 161247Z 02011KT 11/11 A2988 RMK A01 T01050105  RH  100%=      5-min Rain = 0
KANS 161248Z 01011KT 11/11 A2988 RMK A01 T01050105  RH  100%=      5-min Rain = 0
KANS 161249Z 02011KT 11/11 A2988 RMK A01 T01050105  RH  100%=      5-min Rain = 0
KANS 161250Z 01011KT 11/11 A2988 RMK A01 T01050105  RH  100%=      5-min Rain = 0
KANS 161251Z 01013KT 11/11 A2988 RMK A01 T01050105  RH  100%=      5-min Rain = 0
KANS 161252Z 01013KT 11/11 A2988 RMK A01 T01050105  RH  100%=      5-min Rain = 0
KANS 161253Z 01012KT 11/11 A2988 RMK A01 T01050105  RH  100%=      5-min Rain = 0
KANS 161254Z 01012KT 10/10 A2988 RMK A01 T01040104  RH  100%=      5-min Rain = 0
KANS 161255Z 01011KT 10/10 A2988 RMK A01 T01040104  RH  100%=      5-min Rain = 0
KANS 161256Z 01011KT 10/10 A2988 RMK A01 T01040104  RH  100%=      5-min Rain = 0
KANS 161257Z 01012KT 10/10 A2988 RMK A01 T01040104  RH  100%=      5-min Rain = 0
KANS 161258Z 01012KT 10/10 A2988 RMK A01 T01040104  RH  100%=      5-min Rain = 0
KANS 161259Z 01012KT 10/10 A2988 RMK A01 T01040104  RH  100%=      5-min Rain = 0
KANS 161300Z 01012KT 10/10 A2989 RMK A01 T01040104  RH  100%=      5-min Rain = 0
KANS 161301Z 01012KT 10/10 A2989 RMK A01 T01030103  RH  100%=      5-min Rain = 0
KANS 161302Z 01012KT 10/10 A2989 RMK A01 T01040104  RH  100%=      5-min Rain = 0
KANS 161303Z 01011KT 10/10 A2989 RMK A01 T01040104  RH  100%=      5-min Rain = 0
KANS 161304Z 01012KT 10/10 A2989 RMK A01 T01040104  RH  100%=      5-min Rain = 0
KANS 161305Z 01011KT 10/10 A2989 RMK A01 T01030103  RH  100%=      5-min Rain = 0
KANS 161306Z 01011KT 10/10 A2989 RMK A01 T01030103  RH  100%=      5-min Rain = 0
KANS 161307Z 01012KT 10/10 A2989 RMK A01 T01030103  RH  100%=      5-min Rain = 0
KANS 161308Z 01012KT 10/10 A2989 RMK A01 T01030103  RH  100%=      5-min Rain = 0
KANS 161309Z 02011KT 10/10 A2989 RMK A01 T01030103  RH  100%=      5-min Rain = 0
KANS 161310Z 01010KT 10/10 A2989 RMK A01 T01030103  RH  100%=      5-min Rain = 0
KANS 161311Z 01011KT 10/10 A2989 RMK A01 T01030103  RH  100%=      5-min Rain = 0
KANS 161312Z 01011KT 10/10 A2989 RMK A01 T01030103  RH  100%=      5-min Rain = 0
KANS 161313Z 01009KT 10/10 A2989 RMK A01 T01030103  RH  100%=      5-min Rain = 0
KANS 161314Z 01009KT 10/10 A2989 RMK A01 T01030103  RH  100%=      5-min Rain = 0
KANS 161315Z 01008KT 10/10 A2989 RMK A01 T01030103  RH  100%=      5-min Rain = 0
KANS 161316Z 01010KT 10/10 A2989 RMK A01 T01030103  RH  100%=      5-min Rain = 0
KANS 161317Z 02009KT 10/10 A2989 RMK A01 T01030103  RH  100%=      5-min Rain = 0
KANS 161318Z 01008KT 10/10 A2989 RMK A01 T01030103  RH  100%=      5-min Rain = 0
KANS 161319Z 02008KT 10/10 A2989 RMK A01 T01030103  RH  100%=      5-min Rain = 0
KANS 161320Z 02008KT 10/10 A2989 RMK A01 T01030103  RH  100%=      5-min Rain = 0
KANS 161321Z 02010KT 10/10 A2989 RMK A01 T01040103  RH  100%=      5-min Rain = 0
KANS 161322Z 03009KT 10/10 A2989 RMK A01 T01030103  RH  100%=      5-min Rain = 0
KANS 161323Z 02011KT 10/10 A2989 RMK A01 T01030103  RH  100%=      5-min Rain = 0
KANS 161324Z 03010KT 10/10 A2989 RMK A01 T01030103  RH  100%=      5-min Rain = 0
KANS 161325Z 02010KT 10/10 A2989 RMK A01 T01030103  RH  100%=      5-min Rain = 0
KANS 161326Z 02011KT 10/10 A2989 RMK A01 T01030103  RH  100%=      5-min Rain = 0
KANS 161327Z 02008KT 10/10 A2989 RMK A01 T01030103  RH  100%=      5-min Rain = 0
KANS 161328Z 02009KT 10/10 A2989 RMK A01 T01030103  RH  100%=      5-min Rain = 0
KANS 161329Z 02010KT 10/10 A2989 RMK A01 T01030103  RH  100%=      5-min Rain = 0
KANS 161330Z 03011KT 10/10 A2989 RMK A01 T01030103  RH  100%=      5-min Rain = 0
KANS 161331Z 03009KT 10/10 A2989 RMK A01 T01030102  RH  100%=      5-min Rain = 0
KANS 161332Z 02008KT 10/10 A2989 RMK A01 T01030102  RH  100%=      5-min Rain = 0
KANS 161333Z 03007KT 10/10 A2989 RMK A01 T01030103  RH  100%=      5-min Rain = 0
KANS 161334Z 02009KT 10/10 A2989 RMK A01 T01030103  RH  100%=      5-min Rain = 0
KANS 161335Z 02008KT 10/10 A2989 RMK A01 T01030103  RH  100%=      5-min Rain = 0
KANS 161336Z 02009KT 10/10 A2989 RMK A01 T01030103  RH  100%=      5-min Rain = 0
KANS 161337Z 02008KT 10/10 A2989 RMK A01 T01040103  RH  100%=      5-min Rain = 0
KANS 161338Z 02007KT 10/10 A2989 RMK A01 T01030103  RH  100%=      5-min Rain = 0
KANS 161339Z 02007KT 10/10 A2989 RMK A01 T01040103  RH  100%=      5-min Rain = 0
KANS 161340Z 03006KT 10/10 A2989 RMK A01 T01040103  RH  100%=      5-min Rain = 0
KANS 161341Z 03007KT 10/10 A299 RMK A01 T01040104  RH  100%=      5-min Rain = 0
KANS 161342Z 03009KT 10/10 A299 RMK A01 T01040104  RH  100%=      5-min Rain = 0
KANS 161343Z 02008KT 10/10 A299 RMK A01 T01040103  RH  099%=      5-min Rain = 0
KANS 161344Z 02008KT 10/10 A299 RMK A01 T01040103  RH  099%=      5-min Rain = 0
KANS 161345Z 02007KT 10/10 A299 RMK A01 T01040103  RH  099%=      5-min Rain = 0
KANS 161346Z 03006KT 10/10 A299 RMK A01 T01040103  RH  099%=      5-min Rain = 0
KANS 161347Z 03007KT 10/10 A299 RMK A01 T01040103  RH  099%=      5-min Rain = 0
KANS 161348Z 03008KT 10/10 A299 RMK A01 T01040103  RH  099%=      5-min Rain = 0
KANS 161349Z 03007KT 10/10 A299 RMK A01 T01040104  RH  099%=      5-min Rain = 0
KANS 161350Z 03007KT 10/10 A299 RMK A01 T01040103  RH  099%=      5-min Rain = 0
KANS 161351Z 03007KT 10/10 A299 RMK A01 T01040103  RH  099%=      5-min Rain = 0
KANS 161352Z 03007KT 11/10 A299 RMK A01 T01050104  RH  099%=      5-min Rain = 0
KANS 161353Z 03007KT 11/10 A299 RMK A01 T01050104  RH  099%=      5-min Rain = 0
KANS 161354Z 04007KT 11/10 A299 RMK A01 T01050104  RH  099%=      5-min Rain = 0
KANS 161355Z 04007KT 11/10 A299 RMK A01 T01050104  RH  099%=      5-min Rain = 0
KANS 161356Z 04007KT 11/10 A2989 RMK A01 T01050104  RH  099%=      5-min Rain = 0
KANS 161357Z 04006KT 11/10 A2989 RMK A01 T01050104  RH  099%=      5-min Rain = 0
KANS 161358Z 04008KT 11/11 A2989 RMK A01 T01060105  RH  099%=      5-min Rain = 0
KANS 161359Z 03007KT 11/10 A2989 RMK A01 T01060104  RH  099%=      5-min Rain = 0
KANS 161400Z 04006KT 11/10 A2989 RMK A01 T01060104  RH  099%=      5-min Rain = 0
KANS 161401Z 04005KT 11/11 A2989 RMK A01 T01060105  RH  099%=      5-min Rain = 0
KANS 161402Z 03006KT 11/11 A2989 RMK A01 T01070106  RH  099%=      5-min Rain = 0
KANS 161403Z 03007KT 11/11 A2989 RMK A01 T01080107  RH  099%=      5-min Rain = 0
KANS 161404Z 03007KT 11/11 A2989 RMK A01 T01080107  RH  099%=      5-min Rain = 0
KANS 161405Z 03008KT 11/11 A2989 RMK A01 T01080106  RH  099%=      5-min Rain = 0
KANS 161406Z 03008KT 11/11 A2989 RMK A01 T01070105  RH  099%=      5-min Rain = 0
KANS 161407Z 03007KT 11/11 A2989 RMK A01 T01070105  RH  099%=      5-min Rain = 0
KANS 161408Z 03006KT 11/11 A2989 RMK A01 T01070106  RH  099%=      5-min Rain = 0
KANS 161409Z 02005KT 11/11 A2989 RMK A01 T01080106  RH  099%=      5-min Rain = 0
KANS 161410Z 03008KT 11/11 A2989 RMK A01 T01080106  RH  099%=      5-min Rain = 0
KANS 161411Z 03008KT 11/11 A2989 RMK A01 T01080106  RH  099%=      5-min Rain = 0
KANS 161412Z 04006KT 11/11 A2989 RMK A01 T01080105  RH  098%=      5-min Rain = 0
KANS 161413Z 04005KT 11/11 A2989 RMK A01 T01080106  RH  099%=      5-min Rain = 0
KANS 161414Z 04005KT 11/11 A299 RMK A01 T01090107  RH  099%=      5-min Rain = 0
KANS 161415Z 05007KT 11/11 A299 RMK A01 T01090107  RH  099%=      5-min Rain = 0
KANS 161416Z 05006KT 11/11 A299 RMK A01 T01090106  RH  098%=      5-min Rain = 0
KANS 161417Z 04007KT 11/11 A299 RMK A01 T01090106  RH  098%=      5-min Rain = 0
KANS 161418Z 04007KT 11/11 A299 RMK A01 T01090106  RH  098%=      5-min Rain = 0
KANS 161419Z 03006KT 11/11 A299 RMK A01 T01090106  RH  098%=      5-min Rain = 0
KANS 161420Z 03007KT 11/11 A299 RMK A01 T01100108  RH  098%=      5-min Rain = 0
KANS 161421Z 04006KT 11/11 A299 RMK A01 T01100108  RH  098%=      5-min Rain = 0
KANS 161422Z 04007KT 11/11 A299 RMK A01 T01110108  RH  098%=      5-min Rain = 0
KANS 161423Z 03007KT 11/11 A299 RMK A01 T01110108  RH  098%=      5-min Rain = 0
KANS 161424Z 04007KT 11/11 A299 RMK A01 T01100107  RH  098%=      5-min Rain = 0
KANS 161425Z 04007KT 11/11 A299 RMK A01 T01100106  RH  098%=      5-min Rain = 0
KANS 161426Z 04007KT 11/11 A299 RMK A01 T01100107  RH  098%=      5-min Rain = 0
KANS 161427Z 03006KT 11/11 A299 RMK A01 T01110108  RH  098%=      5-min Rain = 0
KANS 161428Z 02007KT 11/11 A299 RMK A01 T01110108  RH  098%=      5-min Rain = 0
KANS 161429Z 02007KT 11/11 A299 RMK A01 T01110108  RH  098%=      5-min Rain = 0
KANS 161430Z 01009KT 11/11 A299 RMK A01 T01110107  RH  097%=      5-min Rain = 0
KANS 161431Z 02008KT 11/11 A299 RMK A01 T01100106  RH  097%=      5-min Rain = 0
KANS 161432Z 02008KT 11/11 A299 RMK A01 T01100106  RH  097%=      5-min Rain = 0
KANS 161433Z 03008KT 11/11 A299 RMK A01 T01100106  RH  097%=      5-min Rain = 0
KANS 161434Z 03007KT 11/11 A299 RMK A01 T01100106  RH  098%=      5-min Rain = 0
KANS 161435Z 03008KT 11/11 A299 RMK A01 T01100107  RH  098%=      5-min Rain = 0
KANS 161436Z 03008KT 11/11 A299 RMK A01 T01100106  RH  097%=      5-min Rain = 0
KANS 161437Z 04009KT 11/11 A299 RMK A01 T01100106  RH  097%=      5-min Rain = 0
KANS 161438Z 02006KT 11/11 A299 RMK A01 T01100106  RH  097%=      5-min Rain = 0
KANS 161439Z 02007KT 11/11 A299 RMK A01 T01110108  RH  098%=      5-min Rain = 0
KANS 161440Z 02008KT 11/11 A299 RMK A01 T01120108  RH  098%=      5-min Rain = 0
KANS 161441Z 01007KT 11/11 A299 RMK A01 T01120108  RH  097%=      5-min Rain = 0
KANS 161442Z 02007KT 11/11 A299 RMK A01 T01120107  RH  097%=      5-min Rain = 0
KANS 161443Z 03007KT 11/11 A2991 RMK A01 T01120108  RH  097%=      5-min Rain = 0
KANS 161444Z 02008KT 11/11 A2991 RMK A01 T01120107  RH  097%=      5-min Rain = 0
KANS 161445Z 02007KT 11/11 A2991 RMK A01 T01120107  RH  097%=      5-min Rain = 0
KANS 161446Z 02009KT 11/11 A2991 RMK A01 T01120106  RH  096%=      5-min Rain = 0
KANS 161447Z 02008KT 11/11 A2991 RMK A01 T01120107  RH  097%=      5-min Rain = 0
KANS 161448Z 02009KT 11/11 A2991 RMK A01 T01120108  RH  097%=      5-min Rain = 0
KANS 161449Z 02008KT 11/11 A2991 RMK A01 T01130107  RH  096%=      5-min Rain = 0
KANS 161450Z 01007KT 11/11 A2991 RMK A01 T01130107  RH  096%=      5-min Rain = 0
KANS 161451Z 01008KT 11/11 A2991 RMK A01 T01130107  RH  096%=      5-min Rain = 0
KANS 161452Z 01008KT 11/11 A2991 RMK A01 T01130108  RH  096%=      5-min Rain = 0
KANS 161453Z 01009KT 11/11 A2991 RMK A01 T01140107  RH  096%=      5-min Rain = 0
KANS 161454Z 02008KT 11/11 A2991 RMK A01 T01140106  RH  095%=      5-min Rain = 0
KANS 161455Z 01007KT 11/11 A2991 RMK A01 T01140107  RH  096%=      5-min Rain = 0
KANS 161456Z 01009KT 11/11 A2991 RMK A01 T01140108  RH  096%=      5-min Rain = 0
KANS 161457Z 01007KT 11/11 A2991 RMK A01 T01140107  RH  095%=      5-min Rain = 0
KANS 161458Z 01007KT 11/11 A2991 RMK A01 T01140107  RH  095%=      5-min Rain = 0
KANS 161459Z 01008KT 11/11 A2991 RMK A01 T01140107  RH  095%=      5-min Rain = 0
KANS 161500Z 01007KT 11/11 A2991 RMK A01 T01140107  RH  095%=      5-min Rain = 0
KANS 161501Z 02008KT 11/11 A2991 RMK A01 T01140107  RH  095%=      5-min Rain = 0
KANS 161502Z 02007KT 12/11 A2991 RMK A01 T01150108  RH  096%=      5-min Rain = 0
KANS 161503Z 02008KT 12/11 A2991 RMK A01 T01150108  RH  095%=      5-min Rain = 0
KANS 161504Z 02007KT 12/11 A2991 RMK A01 T01150107  RH  095%=      5-min Rain = 0
KANS 161505Z 02007KT 11/11 A2991 RMK A01 T01140107  RH  095%=      5-min Rain = 0
KANS 161506Z 01006KT 11/11 A2991 RMK A01 T01140106  RH  095%=      5-min Rain = 0
KANS 161507Z 00006KT 11/11 A2991 RMK A01 T01140106  RH  095%=      5-min Rain = 0
KANS 161508Z 00007KT 11/11 A2991 RMK A01 T01140107  RH  096%=      5-min Rain = 0
KANS 161509Z 02006KT 11/11 A2991 RMK A01 T01140107  RH  095%=      5-min Rain = 0
KANS 161510Z 03007KT 12/11 A2991 RMK A01 T01150108  RH  095%=      5-min Rain = 0
KANS 161511Z 02005KT 12/11 A2991 RMK A01 T01150107  RH  095%=      5-min Rain = 0
KANS 161512Z 03006KT 12/11 A2991 RMK A01 T01150108  RH  096%=      5-min Rain = 0
KANS 161513Z 03007KT 12/11 A2991 RMK A01 T01150108  RH  095%=      5-min Rain = 0
KANS 161514Z 03006KT 11/11 A2991 RMK A01 T01140106  RH  094%=      5-min Rain = 0
KANS 161515Z 04006KT 11/11 A2991 RMK A01 T01140106  RH  095%=      5-min Rain = 0
KANS 161516Z 02005KT 11/11 A2991 RMK A01 T01140106  RH  095%=      5-min Rain = 0
KANS 161517Z 02006KT 11/11 A2991 RMK A01 T01140107  RH  095%=      5-min Rain = 0
KANS 161518Z 03005KT 11/11 A2991 RMK A01 T01140106  RH  095%=      5-min Rain = 0
KANS 161519Z 02005KT 11/11 A2992 RMK A01 T01140107  RH  096%=      5-min Rain = 0
KANS 161520Z 02006KT 12/11 A2992 RMK A01 T01150108  RH  096%=      5-min Rain = 0
KANS 161521Z 03007KT 12/11 A2992 RMK A01 T01150108  RH  096%=      5-min Rain = 0
KANS 161522Z 03006KT 12/11 A2992 RMK A01 T01150108  RH  095%=      5-min Rain = 0
KANS 161523Z 03006KT 12/11 A2992 RMK A01 T01160110  RH  096%=      5-min Rain = 0
KANS 161524Z 02006KT 12/11 A2992 RMK A01 T01160110  RH  096%=      5-min Rain = 0
KANS 161525Z 03007KT 12/11 A2992 RMK A01 T01170110  RH  095%=      5-min Rain = 0
KANS 161526Z 03009KT 12/11 A2992 RMK A01 T01170109  RH  095%=      5-min Rain = 0
KANS 161527Z 03006KT 12/11 A2992 RMK A01 T01160106  RH  094%=      5-min Rain = 0
KANS 161528Z 02009KT 12/11 A2992 RMK A01 T01160108  RH  095%=      5-min Rain = 0
KANS 161529Z 02010KT 12/11 A2992 RMK A01 T01160107  RH  094%=      5-min Rain = 0
KANS 161530Z 02009KT 12/11 A2992 RMK A01 T01160106  RH  094%=      5-min Rain = 0
KANS 161531Z 02006KT 12/11 A2992 RMK A01 T01160106  RH  093%=      5-min Rain = 0
KANS 161532Z 02008KT 12/11 A2992 RMK A01 T01170109  RH  095%=      5-min Rain = 0
KANS 161533Z 02007KT 12/11 A2992 RMK A01 T01180108  RH  094%=      5-min Rain = 0
KANS 161534Z 01007KT 12/11 A2992 RMK A01 T01180109  RH  094%=      5-min Rain = 0
KANS 161535Z 01006KT 12/11 A2992 RMK A01 T01190108  RH  093%=      5-min Rain = 0
KANS 161536Z 01007KT 12/11 A2992 RMK A01 T01190108  RH  093%=      5-min Rain = 0
KANS 161537Z 01008KT 12/11 A2992 RMK A01 T01190109  RH  094%=      5-min Rain = 0
KANS 161538Z 01008KT 12/11 A2992 RMK A01 T01190107  RH  092%=      5-min Rain = 0
KANS 161539Z 02010KT 12/11 A2992 RMK A01 T01190106  RH  092%=      5-min Rain = 0
KANS 161540Z 00008KT 12/11 A2992 RMK A01 T01190106  RH  092%=      5-min Rain = 0
KANS 161541Z 01008KT 12/11 A2992 RMK A01 T01190106  RH  092%=      5-min Rain = 0
KANS 161542Z 01010KT 12/11 A2992 RMK A01 T01190107  RH  092%=      5-min Rain = 0
KANS 161543Z 01009KT 12/11 A2992 RMK A01 T01190106  RH  092%=      5-min Rain = 0
KANS 161544Z 01008KT 12/11 A2992 RMK A01 T01190105  RH  091%=      5-min Rain = 0
KANS 161545Z 00009KT 12/11 A2992 RMK A01 T01190106  RH  091%=      5-min Rain = 0
KANS 161546Z 01010KT 12/11 A2992 RMK A01 T01200106  RH  091%=      5-min Rain = 0
KANS 161547Z 01010KT 12/11 A2992 RMK A01 T01190106  RH  091%=      5-min Rain = 0
KANS 161548Z 01010KT 12/11 A2992 RMK A01 T01200106  RH  091%=      5-min Rain = 0
KANS 161549Z 01009KT 12/11 A2992 RMK A01 T01190106  RH  092%=      5-min Rain = 0
KANS 161550Z 01007KT 12/11 A2992 RMK A01 T01190106  RH  092%=      5-min Rain = 0
KANS 161551Z 00008KT 12/11 A2992 RMK A01 T01200107  RH  092%=      5-min Rain = 0
KANS 161552Z 02009KT 12/11 A2993 RMK A01 T01200108  RH  092%=      5-min Rain = 0
KANS 161553Z 02010KT 12/11 A2993 RMK A01 T01210107  RH  091%=      5-min Rain = 0
KANS 161554Z 01007KT 12/11 A2993 RMK A01 T01210107  RH  091%=      5-min Rain = 0
KANS 161555Z 01008KT 12/11 A2993 RMK A01 T01210107  RH  091%=      5-min Rain = 0
KANS 161556Z 02007KT 12/11 A2993 RMK A01 T01200106  RH  091%=      5-min Rain = 0
KANS 161557Z 02008KT 12/11 A2993 RMK A01 T01200107  RH  091%=      5-min Rain = 0
KANS 161558Z 02006KT 12/11 A2993 RMK A01 T01210108  RH  092%=      5-min Rain = 0
KANS 161559Z 01010KT 12/11 A2992 RMK A01 T01220108  RH  092%=      5-min Rain = 0
KANS 161600Z 00011KT 12/11 A2992 RMK A01 T01220108  RH  091%=      5-min Rain = 0
KANS 161601Z 35010KT 12/11 A2992 RMK A01 T01230106  RH  090%=      5-min Rain = 0
KANS 161602Z 00010KT 12/11 A2992 RMK A01 T01230105  RH  089%=      5-min Rain = 0
KANS 161603Z 35010KT 12/11 A2992 RMK A01 T01230106  RH  089%=      5-min Rain = 0
KANS 161604Z 36010KT 12/11 A2992 RMK A01 T01240106  RH  089%=      5-min Rain = 0
KANS 161605Z 00011KT 12/11 A2992 RMK A01 T01240106  RH  089%=      5-min Rain = 0
KANS 161606Z 36008KT 12/11 A2992 RMK A01 T01240105  RH  088%=      5-min Rain = 0
KANS 161607Z 00007KT 12/11 A2992 RMK A01 T01230107  RH  090%=      5-min Rain = 0
KANS 161608Z 36009KT 12/11 A2992 RMK A01 T01230106  RH  089%=      5-min Rain = 0
KANS 161609Z 01009KT 12/11 A2992 RMK A01 T01230105  RH  088%=      5-min Rain = 0
KANS 161610Z 01011KT 12/11 A2992 RMK A01 T01230106  RH  089%=      5-min Rain = 0
KANS 161611Z 02010KT 12/10 A2992 RMK A01 T01230104  RH  088%=      5-min Rain = 0
KANS 161612Z 01011KT 12/11 A2992 RMK A01 T01230105  RH  089%=      5-min Rain = 0
KANS 161613Z 36009KT 12/11 A2992 RMK A01 T01230106  RH  089%=      5-min Rain = 0
KANS 161614Z 00009KT 12/11 A2992 RMK A01 T01230106  RH  089%=      5-min Rain = 0
KANS 161615Z 01009KT 12/11 A2993 RMK A01 T01230106  RH  090%=      5-min Rain = 0
KANS 161616Z 02008KT 12/11 A2993 RMK A01 T01230108  RH  090%=      5-min Rain = 0
KANS 161617Z 02008KT 12/11 A2993 RMK A01 T01240106  RH  089%=      5-min Rain = 0
KANS 161618Z 01008KT 12/11 A2993 RMK A01 T01230105  RH  089%=      5-min Rain = 0
KANS 161619Z 01009KT 12/11 A2992 RMK A01 T01230106  RH  089%=      5-min Rain = 0
KANS 161620Z 01006KT 12/11 A2993 RMK A01 T01230106  RH  089%=      5-min Rain = 0
KANS 161621Z 02008KT 12/11 A2993 RMK A01 T01230106  RH  089%=      5-min Rain = 0
KANS 161622Z 01010KT 12/11 A2993 RMK A01 T01230105  RH  089%=      5-min Rain = 0
KANS 161623Z 02009KT 12/11 A2993 RMK A01 T01230105  RH  088%=      5-min Rain = 0
KANS 161624Z 02009KT 12/11 A2993 RMK A01 T01230105  RH  089%=      5-min Rain = 0
KANS 161625Z 01008KT 12/11 A2993 RMK A01 T01230105  RH  089%=      5-min Rain = 0
KANS 161626Z 01008KT 12/11 A2993 RMK A01 T01240107  RH  089%=      5-min Rain = 0
KANS 161627Z 01007KT 12/11 A2993 RMK A01 T01240107  RH  090%=      5-min Rain = 0
KANS 161628Z 01008KT 13/11 A2993 RMK A01 T01250108  RH  089%=      5-min Rain = 0
KANS 161629Z 35007KT 13/11 A2993 RMK A01 T01260108  RH  089%=      5-min Rain = 0
KANS 161630Z 00007KT 13/11 A2993 RMK A01 T01270108  RH  088%=      5-min Rain = 0
KANS 161631Z 36008KT 13/11 A2993 RMK A01 T01290107  RH  087%=      5-min Rain = 0
KANS 161632Z 35006KT 13/11 A2993 RMK A01 T01300108  RH  087%=      5-min Rain = 0
KANS 161633Z 00010KT 13/11 A2993 RMK A01 T01320107  RH  085%=      5-min Rain = 0
KANS 161634Z 35010KT 13/11 A2993 RMK A01 T01320105  RH  084%=      5-min Rain = 0
KANS 161635Z 36009KT 13/11 A2993 RMK A01 T01320107  RH  084%=      5-min Rain = 0
KANS 161636Z 01009KT 13/11 A2993 RMK A01 T01340107  RH  084%=      5-min Rain = 0
KANS 161637Z 00009KT 13/11 A2993 RMK A01 T01340108  RH  084%=      5-min Rain = 0
KANS 161638Z 35008KT 13/11 A2993 RMK A01 T01340108  RH  084%=      5-min Rain = 0
KANS 161639Z 01007KT 14/11 A2993 RMK A01 T01350108  RH  084%=      5-min Rain = 0
KANS 161640Z 00011KT 14/11 A2993 RMK A01 T01360107  RH  083%=      5-min Rain = 0
KANS 161641Z 00009KT 13/10 A2993 RMK A01 T01340102  RH  081%=      5-min Rain = 0
KANS 161642Z 01010KT 13/10 A2993 RMK A01 T01330104  RH  082%=      5-min Rain = 0
KANS 161643Z 36009KT 13/10 A2993 RMK A01 T01330104  RH  082%=      5-min Rain = 0
KANS 161644Z 01008KT 13/10 A2993 RMK A01 T01330103  RH  082%=      5-min Rain = 0
KANS 161645Z 02008KT 13/10 A2993 RMK A01 T01340103  RH  082%=      5-min Rain = 0
KANS 161646Z 01008KT 13/10 A2993 RMK A01 T01340104  RH  083%=      5-min Rain = 0
KANS 161647Z 01010KT 13/10 A2993 RMK A01 T01340103  RH  082%=      5-min Rain = 0
KANS 161648Z 02010KT 13/10 A2993 RMK A01 T01340103  RH  082%=      5-min Rain = 0
KANS 161649Z 01011KT 13/10 A2993 RMK A01 T01330103  RH  082%=      5-min Rain = 0
KANS 161650Z 02011KT 13/10 A2993 RMK A01 T01320103  RH  082%=      5-min Rain = 0
KANS 161651Z 02010KT 13/10 A2993 RMK A01 T01320103  RH  082%=      5-min Rain = 0
KANS 161652Z 02010KT 13/10 A2993 RMK A01 T01330102  RH  082%=      5-min Rain = 0
KANS 161653Z 01008KT 13/10 A2993 RMK A01 T01330102  RH  082%=      5-min Rain = 0
KANS 161654Z 01007KT 13/10 A2993 RMK A01 T01320101  RH  081%=      5-min Rain = 0
KANS 161655Z 01009KT 13/10 A2993 RMK A01 T01320103  RH  083%=      5-min Rain = 0
KANS 161656Z 01010KT 13/10 A2993 RMK A01 T01320101  RH  081%=      5-min Rain = 0
KANS 161657Z 02009KT 13/10 A2993 RMK A01 T01320102  RH  082%=      5-min Rain = 0
KANS 161658Z 02010KT 13/10 A2993 RMK A01 T01320102  RH  082%=      5-min Rain = 0
KANS 161659Z 02011KT 13/10 A2993 RMK A01 T01330100  RH  081%=      5-min Rain = 0
KANS 161700Z 36009KT 13/10 A2993 RMK A01 T01320102  RH  082%=      5-min Rain = 0
KANS 161701Z 36010KT 13/10 A2993 RMK A01 T01330101  RH  081%=      5-min Rain = 0
KANS 161702Z 36009KT 13/10 A2993 RMK A01 T01330101  RH  081%=      5-min Rain = 0
KANS 161703Z 00008KT 13/10 A2993 RMK A01 T01330102  RH  082%=      5-min Rain = 0
KANS 161704Z 01009KT 13/10 A2993 RMK A01 T01330102  RH  082%=      5-min Rain = 0
KANS 161705Z 01011KT 13/10 A2993 RMK A01 T01340101  RH  081%=      5-min Rain = 0
KANS 161706Z 01009KT 13/10 A2993 RMK A01 T01340100  RH  080%=      5-min Rain = 0
KANS 161707Z 00006KT 13/10 A2993 RMK A01 T01340103  RH  081%=      5-min Rain = 0
KANS 161708Z 01007KT 14/10 A2993 RMK A01 T01350102  RH  080%=      5-min Rain = 0
KANS 161709Z 36011KT 14/10 A2993 RMK A01 T01360102  RH  080%=      5-min Rain = 0
KANS 161710Z 00009KT 14/10 A2993 RMK A01 T01360099  RH  078%=      5-min Rain = 0
KANS 161711Z 35009KT 14/10 A2993 RMK A01 T01360102  RH  080%=      5-min Rain = 0
KANS 161712Z 36009KT 14/10 A2993 RMK A01 T01360101  RH  079%=      5-min Rain = 0
KANS 161713Z 01008KT 14/10 A2993 RMK A01 T01360101  RH  079%=      5-min Rain = 0
KANS 161714Z 01008KT 14/10 A2993 RMK A01 T01360103  RH  080%=      5-min Rain = 0
KANS 161715Z 36010KT 14/10 A2993 RMK A01 T01370103  RH  080%=      5-min Rain = 0
KANS 161716Z 00010KT 14/10 A2993 RMK A01 T01380101  RH  078%=      5-min Rain = 0
KANS 161717Z 01008KT 14/10 A2993 RMK A01 T01380104  RH  080%=      5-min Rain = 0
KANS 161718Z 00008KT 14/11 A2993 RMK A01 T01390106  RH  080%=      5-min Rain = 0
KANS 161719Z 02010KT 14/11 A2993 RMK A01 T01410105  RH  079%=      5-min Rain = 0
KANS 161720Z 02009KT 14/10 A2993 RMK A01 T01410104  RH  078%=      5-min Rain = 0
KANS 161721Z 01009KT 14/10 A2993 RMK A01 T01410102  RH  078%=      5-min Rain = 0
KANS 161722Z 36010KT 14/10 A2994 RMK A01 T01400103  RH  078%=      5-min Rain = 0
KANS 161723Z 35011KT 14/10 A2994 RMK A01 T01400102  RH  078%=      5-min Rain = 0
KANS 161724Z 36010KT 14/10 A2994 RMK A01 T01410102  RH  077%=      5-min Rain = 0
KANS 161725Z 00008KT 14/10 A2994 RMK A01 T01420100  RH  076%=      5-min Rain = 0
KANS 161726Z 01007KT 14/10 A2994 RMK A01 T01410102  RH  078%=      5-min Rain = 0
KANS 161727Z 02009KT 14/10 A2993 RMK A01 T01410102  RH  077%=      5-min Rain = 0
KANS 161728Z 01009KT 14/10 A2993 RMK A01 T01410104  RH  078%=      5-min Rain = 0
KANS 161729Z 00012KT 14/10 A2993 RMK A01 T01430103  RH  077%=      5-min Rain = 0
KANS 161730Z 02010KT 14/10 A2993 RMK A01 T01430101  RH  076%=      5-min Rain = 0
KANS 161731Z 01007KT 14/10 A2993 RMK A01 T01420102  RH  077%=      5-min Rain = 0
KANS 161732Z 01008KT 14/10 A2993 RMK A01 T01410102  RH  077%=      5-min Rain = 0
KANS 161733Z 02007KT 14/10 A2993 RMK A01 T01420103  RH  077%=      5-min Rain = 0
KANS 161734Z 35009KT 15/10 A2993 RMK A01 T01450102  RH  075%=      5-min Rain = 0
KANS 161735Z 36009KT 15/10 A2993 RMK A01 T01450099  RH  074%=      5-min Rain = 0
KANS 161736Z 01009KT 14/10 A2993 RMK A01 T01440103  RH  076%=      5-min Rain = 0
KANS 161737Z 01010KT 15/10 A2993 RMK A01 T01450101  RH  075%=      5-min Rain = 0
KANS 161738Z 02011KT 15/10 A2993 RMK A01 T01450100  RH  075%=      5-min Rain = 0
KANS 161739Z 02012KT 15/10 A2993 RMK A01 T01450099  RH  074%=      5-min Rain = 0
KANS 161740Z 35011KT 15/10 A2994 RMK A01 T01450099  RH  074%=      5-min Rain = 0
KANS 161741Z 35011KT 15/10 A2994 RMK A01 T01450100  RH  074%=      5-min Rain = 0
KANS 161742Z 36012KT 15/10 A2994 RMK A01 T01450098  RH  074%=      5-min Rain = 0
KANS 161743Z 01012KT 14/10 A2994 RMK A01 T01440100  RH  075%=      5-min Rain = 0
KANS 161744Z 01009KT 14/10 A2994 RMK A01 T01440096  RH  073%=      5-min Rain = 0
KANS 161745Z 01011KT 14/10 A2994 RMK A01 T01440096  RH  073%=      5-min Rain = 0
KANS 161746Z 35012KT 15/10 A2994 RMK A01 T01450098  RH  073%=      5-min Rain = 0
KANS 161747Z 35011KT 15/10 A2994 RMK A01 T01450099  RH  074%=      5-min Rain = 0
KANS 161748Z 00010KT 15/10 A2994 RMK A01 T01460098  RH  073%=      5-min Rain = 0
KANS 161749Z 01010KT 15/10 A2994 RMK A01 T01450099  RH  073%=      5-min Rain = 0
KANS 161750Z 01010KT 15/10 A2994 RMK A01 T01470099  RH  073%=      5-min Rain = 0
KANS 161751Z 01012KT 15/10 A2994 RMK A01 T01480099  RH  072%=      5-min Rain = 0
KANS 161752Z 36010KT 15/10 A2994 RMK A01 T01480099  RH  072%=      5-min Rain = 0
KANS 161753Z 36011KT 15/10 A2993 RMK A01 T01470098  RH  073%=      5-min Rain = 0
KANS 161754Z 01010KT 15/10 A2993 RMK A01 T01470097  RH  072%=      5-min Rain = 0
KANS 161755Z 02009KT 15/10 A2993 RMK A01 T01470098  RH  072%=      5-min Rain = 0
KANS 161756Z 00009KT 15/10 A2993 RMK A01 T01490100  RH  072%=      5-min Rain = 0
KANS 161757Z 36012KT 15/10 A2993 RMK A01 T01510097  RH  070%=      5-min Rain = 0
KANS 161758Z 00011KT 15/10 A2993 RMK A01 T01490096  RH  070%=      5-min Rain = 0
KANS 161759Z 36012KT 15/10 A2993 RMK A01 T01480098  RH  072%=      5-min Rain = 0
KANS 161800Z 36011KT 15/10 A2993 RMK A01 T01490096  RH  071%=      5-min Rain = 0
KANS 161801Z 36012KT 15/10 A2994 RMK A01 T01490096  RH  071%=      5-min Rain = 0
KANS 161802Z 01012KT 15/10 A2994 RMK A01 T01490096  RH  070%=      5-min Rain = 0
KANS 161803Z 36009KT 15/10 A2994 RMK A01 T01490095  RH  070%=      5-min Rain = 0
KANS 161804Z 00008KT 15/10 A2994 RMK A01 T01480098  RH  071%=      5-min Rain = 0
KANS 161805Z 01008KT 15/10 A2994 RMK A01 T01500096  RH  070%=      5-min Rain = 0
KANS 161806Z 01008G13KT 15/10 A2994 RMK A01 T01500097  RH  071%=      5-min Rain = 0
KANS 161807Z 36009KT 15/10 A2994 RMK A01 T01530100  RH  071%=      5-min Rain = 0
KANS 161808Z 00012KT 16/10 A2994 RMK A01 T01560099  RH  069%=      5-min Rain = 0
KANS 161809Z 00011KT 16/10 A2994 RMK A01 T01550097  RH  068%=      5-min Rain = 0
KANS 161810Z 01011KT 15/10 A2994 RMK A01 T01530096  RH  068%=      5-min Rain = 0
KANS 161811Z 36013KT 15/10 A2994 RMK A01 T01510096  RH  069%=      5-min Rain = 0
KANS 161812Z 01011KT 15/10 A2994 RMK A01 T01520098  RH  070%=      5-min Rain = 0
KANS 161813Z 02011KT 15/10 A2994 RMK A01 T01540098  RH  069%=      5-min Rain = 0
KANS 161814Z 02010KT 16/10 A2993 RMK A01 T01550096  RH  068%=      5-min Rain = 0
KANS 161815Z 01008KT 16/10 A2993 RMK A01 T01550098  RH  069%=      5-min Rain = 0
KANS 161816Z 00013G18KT 16/10 A2994 RMK A01 T01560097  RH  068%=      5-min Rain = 0
KANS 161817Z 01012KT 16/10 A2994 RMK A01 T01570095  RH  066%=      5-min Rain = 0
KANS 161818Z 02010KT 16/10 A2993 RMK A01 T01560095  RH  067%=      5-min Rain = 0
KANS 161819Z 01010KT 16/10 A2993 RMK A01 T01560097  RH  068%=      5-min Rain = 0
KANS 161820Z 02013KT 16/10 A2993 RMK A01 T01570095  RH  067%=      5-min Rain = 0
KANS 161821Z 02013KT 16/09 A2993 RMK A01 T01560094  RH  066%=      5-min Rain = 0
KANS 161822Z 03012KT 16/09 A2993 RMK A01 T01550093  RH  067%=      5-min Rain = 0
KANS 161823Z 02009G15KT 16/09 A2994 RMK A01 T01550093  RH  067%=      5-min Rain = 0
KANS 161824Z 01013KT 16/09 A2994 RMK A01 T01550092  RH  066%=      5-min Rain = 0
KANS 161825Z 01014KT 16/09 A2994 RMK A01 T01560091  RH  065%=      5-min Rain = 0
KANS 161826Z 02012G17KT 16/09 A2994 RMK A01 T01550090  RH  065%=      5-min Rain = 0
KANS 161827Z 01012KT 16/09 A2994 RMK A01 T01550092  RH  066%=      5-min Rain = 0
KANS 161828Z 02010KT 15/09 A2994 RMK A01 T01540092  RH  066%=      5-min Rain = 0
KANS 161829Z 02010KT 15/09 A2994 RMK A01 T01530094  RH  068%=      5-min Rain = 0
KANS 161830Z 01012KT 15/10 A2994 RMK A01 T01540096  RH  068%=      5-min Rain = 0
KANS 161831Z 36013KT 16/10 A2994 RMK A01 T01560096  RH  067%=      5-min Rain = 0
KANS 161832Z 36010KT 16/09 A2994 RMK A01 T01550092  RH  066%=      5-min Rain = 0
KANS 161833Z 36010G16KT 15/09 A2994 RMK A01 T01530094  RH  068%=      5-min Rain = 0
KANS 161834Z 01014KT 15/10 A2994 RMK A01 T01540096  RH  069%=      5-min Rain = 0
KANS 161835Z 00015KT 16/10 A2994 RMK A01 T01550095  RH  068%=      5-min Rain = 0
KANS 161836Z 00014KT 15/10 A2994 RMK A01 T01540096  RH  068%=      5-min Rain = 0
KANS 161837Z 01012G17KT 15/10 A2994 RMK A01 T01540096  RH  068%=      5-min Rain = 0
KANS 161838Z 02015KT 15/10 A2994 RMK A01 T01530095  RH  068%=      5-min Rain = 0
KANS 161839Z 02012KT 15/10 A2994 RMK A01 T01530095  RH  068%=      5-min Rain = 0
KANS 161840Z 00013KT 15/09 A2994 RMK A01 T01520094  RH  068%=      5-min Rain = 0
KANS 161841Z 01012KT 15/09 A2993 RMK A01 T01520093  RH  068%=      5-min Rain = 0
KANS 161842Z 02011G16KT 15/09 A2993 RMK A01 T01520093  RH  068%=      5-min Rain = 0
KANS 161843Z 02015KT 15/09 A2993 RMK A01 T01520094  RH  068%=      5-min Rain = 0
KANS 161844Z 02012KT 15/09 A2993 RMK A01 T01530093  RH  068%=      5-min Rain = 0
KANS 161845Z 01012KT 15/09 A2993 RMK A01 T01520093  RH  068%=      5-min Rain = 0
KANS 161846Z 03013G19KT 15/09 A2993 RMK A01 T01530093  RH  068%=      5-min Rain = 0
KANS 161847Z 03014KT 15/09 A2993 RMK A01 T01540092  RH  067%=      5-min Rain = 0
KANS 161848Z 02012KT 15/09 A2993 RMK A01 T01540093  RH  067%=      5-min Rain = 0
KANS 161849Z 02014G20KT 15/09 A2993 RMK A01 T01540094  RH  067%=      5-min Rain = 0
KANS 161850Z 01010G15KT 15/09 A2993 RMK A01 T01540094  RH  067%=      5-min Rain = 0
KANS 161851Z 02011KT 15/09 A2993 RMK A01 T01540094  RH  067%=      5-min Rain = 0
KANS 161852Z 02013KT 16/10 A2993 RMK A01 T01550095  RH  067%=      5-min Rain = 0
KANS 161853Z 01014KT 16/09 A2993 RMK A01 T01550094  RH  067%=      5-min Rain = 0
KANS 161854Z 01013G18KT 16/10 A2993 RMK A01 T01550095  RH  067%=      5-min Rain = 0
KANS 161855Z 02016KT 16/10 A2993 RMK A01 T01550095  RH  068%=      5-min Rain = 0
KANS 161856Z 01014KT 15/09 A2993 RMK A01 T01540094  RH  067%=      5-min Rain = 0
KANS 161857Z 02011KT 15/09 A2993 RMK A01 T01520094  RH  068%=      5-min Rain = 0
KANS 161858Z 03014KT 15/10 A2993 RMK A01 T01520095  RH  069%=      5-min Rain = 0
KANS 161859Z 03014KT 15/09 A2993 RMK A01 T01530093  RH  067%=      5-min Rain = 0
KANS 161900Z 03011KT 15/09 A2993 RMK A01 T01530093  RH  067%=      5-min Rain = 0
KANS 161901Z 02013KT 16/09 A2993 RMK A01 T01550092  RH  066%=      5-min Rain = 0
KANS 161902Z 02014KT 16/09 A2993 RMK A01 T01560091  RH  065%=      5-min Rain = 0
KANS 161903Z 02015G21KT 16/09 A2993 RMK A01 T01560091  RH  065%=      5-min Rain = 0
KANS 161904Z 03014G19KT 16/09 A2993 RMK A01 T01550091  RH  066%=      5-min Rain = 0
KANS 161905Z 04011KT 15/09 A2993 RMK A01 T01540092  RH  066%=      5-min Rain = 0
KANS 161906Z 04013G20KT 16/09 A2993 RMK A01 T01560092  RH  066%=      5-min Rain = 0
KANS 161907Z 03016G21KT 16/09 A2993 RMK A01 T01570092  RH  065%=      5-min Rain = 0
KANS 161908Z 03014KT 16/09 A2993 RMK A01 T01560092  RH  065%=      5-min Rain = 0
KANS 161909Z 01011G17KT 16/09 A2993 RMK A01 T01550092  RH  066%=      5-min Rain = 0
KANS 161910Z 01014KT 16/09 A2993 RMK A01 T01560090  RH  065%=      5-min Rain = 0
KANS 161911Z 01016G21KT 16/09 A2993 RMK A01 T01560092  RH  066%=      5-min Rain = 0
KANS 161912Z 02016KT 16/09 A2993 RMK A01 T01560092  RH  066%=      5-min Rain = 0
KANS 161913Z 02016G22KT 16/09 A2993 RMK A01 T01560090  RH  065%=      5-min Rain = 0
KANS 161914Z 03016KT 16/09 A2993 RMK A01 T01550090  RH  065%=      5-min Rain = 0
KANS 161915Z 03016KT 15/09 A2993 RMK A01 T01540090  RH  065%=      5-min Rain = 0
KANS 161916Z 03012KT 15/09 A2993 RMK A01 T01540089  RH  065%=      5-min Rain = 0
KANS 161917Z 02010G15KT 15/09 A2993 RMK A01 T01530090  RH  066%=      5-min Rain = 0
KANS 161918Z 02017KT 15/09 A2993 RMK A01 T01540092  RH  066%=      5-min Rain = 0
KANS 161919Z 02015G20KT 16/09 A2993 RMK A01 T01550090  RH  065%=      5-min Rain = 0
KANS 161920Z 02014KT 15/09 A2993 RMK A01 T01540090  RH  066%=      5-min Rain = 0
KANS 161921Z 02016KT 15/09 A2993 RMK A01 T01540092  RH  066%=      5-min Rain = 0
KANS 161922Z 01016KT 16/09 A2993 RMK A01 T01550091  RH  066%=      5-min Rain = 0
KANS 161923Z 00015G20KT 15/09 A2993 RMK A01 T01530089  RH  066%=      5-min Rain = 0
KANS 161924Z 00013KT 15/09 A2993 RMK A01 T01510090  RH  067%=      5-min Rain = 0
KANS 161925Z 02015G20KT 15/09 A2993 RMK A01 T01530092  RH  067%=      5-min Rain = 0
KANS 161926Z 03017KT 16/09 A2993 RMK A01 T01550093  RH  066%=      5-min Rain = 0
KANS 161927Z 01016KT 15/09 A2993 RMK A01 T01540093  RH  067%=      5-min Rain = 0
KANS 161928Z 02018KT 15/09 A2993 RMK A01 T01530091  RH  066%=      5-min Rain = 0
KANS 161929Z 03014KT 15/09 A2993 RMK A01 T01510091  RH  067%=      5-min Rain = 0
KANS 161930Z 03015G20KT 15/09 A2993 RMK A01 T01520092  RH  068%=      5-min Rain = 0
KANS 161931Z 03015KT 15/09 A2993 RMK A01 T01530092  RH  067%=      5-min Rain = 0
KANS 161932Z 03013KT 15/09 A2993 RMK A01 T01520092  RH  067%=      5-min Rain = 0
KANS 161933Z 03013G19KT 15/09 A2993 RMK A01 T01510091  RH  067%=      5-min Rain = 0
KANS 161934Z 01016G21KT 15/09 A2993 RMK A01 T01520091  RH  067%=      5-min Rain = 0
KANS 161935Z 01015KT 15/09 A2993 RMK A01 T01520089  RH  066%=      5-min Rain = 0
KANS 161936Z 02016KT 15/09 A2993 RMK A01 T01520091  RH  067%=      5-min Rain = 0
KANS 161937Z 01016G21KT 15/09 A2993 RMK A01 T01520091  RH  067%=      5-min Rain = 0
KANS 161938Z 02016KT 15/09 A2993 RMK A01 T01520090  RH  067%=      5-min Rain = 0
KANS 161939Z 02014KT 15/09 A2993 RMK A01 T01500090  RH  068%=      5-min Rain = 0
KANS 161940Z 02013KT 15/09 A2993 RMK A01 T01500091  RH  068%=      5-min Rain = 0
KANS 161941Z 02013KT 15/09 A2993 RMK A01 T01520089  RH  066%=      5-min Rain = 0
KANS 161942Z 02015KT 15/09 A2993 RMK A01 T01520087  RH  065%=      5-min Rain = 0
KANS 161943Z 02014KT 15/08 A2993 RMK A01 T01520084  RH  064%=      5-min Rain = 0
KANS 161944Z 02011G16KT 15/09 A2994 RMK A01 T01500086  RH  065%=      5-min Rain = 0
KANS 161945Z 02012G18KT 15/09 A2994 RMK A01 T01520088  RH  065%=      5-min Rain = 0
KANS 161946Z 01015G20KT 15/09 A2994 RMK A01 T01540086  RH  064%=      5-min Rain = 0
KANS 161947Z 01015G20KT 15/08 A2994 RMK A01 T01530081  RH  062%=      5-min Rain = 0
KANS 161948Z 01013KT 15/08 A2994 RMK A01 T01520082  RH  063%=      5-min Rain = 0
KANS 161949Z 02015G20KT 15/08 A2994 RMK A01 T01520082  RH  063%=      5-min Rain = 0
KANS 161950Z 02014G20KT 15/08 A2994 RMK A01 T01530082  RH  062%=      5-min Rain = 0
KANS 161951Z 03014KT 15/08 A2994 RMK A01 T01530083  RH  063%=      5-min Rain = 0
KANS 161952Z 02013KT 15/08 A2994 RMK A01 T01530084  RH  063%=      5-min Rain = 0
KANS 161953Z 02011G17KT 15/09 A2994 RMK A01 T01540085  RH  064%=      5-min Rain = 0
KANS 161954Z 02014G19KT 16/09 A2994 RMK A01 T01560086  RH  063%=      5-min Rain = 0
KANS 161955Z 02014KT 16/09 A2994 RMK A01 T01560085  RH  063%=      5-min Rain = 0
KANS 161956Z 01012KT 16/08 A2994 RMK A01 T01550084  RH  063%=      5-min Rain = 0
KANS 161957Z 02011KT 16/09 A2994 RMK A01 T01550086  RH  063%=      5-min Rain = 0
KANS 161958Z 01014G19KT 16/09 A2994 RMK A01 T01580085  RH  062%=      5-min Rain = 0
KANS 161959Z 00012KT 16/08 A2994 RMK A01 T01560084  RH  062%=      5-min Rain = 0
KANS 162000Z 00013KT 15/08 A2994 RMK A01 T01530084  RH  063%=      5-min Rain = 0
KANS 162001Z 02011KT 15/09 A2994 RMK A01 T01520085  RH  064%=      5-min Rain = 0
KANS 162002Z 03014KT 16/09 A2994 RMK A01 T01560086  RH  063%=      5-min Rain = 0
KANS 162003Z 03013KT 16/08 A2994 RMK A01 T01570084  RH  062%=      5-min Rain = 0
KANS 162004Z 03011KT 16/09 A2994 RMK A01 T01570085  RH  062%=      5-min Rain = 0
KANS 162005Z 02013G18KT 16/08 A2994 RMK A01 T01560083  RH  062%=      5-min Rain = 0
KANS 162006Z 02016KT 16/08 A2993 RMK A01 T01560081  RH  061%=      5-min Rain = 0
KANS 162007Z 03016G21KT 16/08 A2993 RMK A01 T01560081  RH  061%=      5-min Rain = 0
KANS 162008Z 02011KT 15/08 A2994 RMK A01 T01540081  RH  062%=      5-min Rain = 0
KANS 162009Z 02013G18KT 15/08 A2994 RMK A01 T01530083  RH  063%=      5-min Rain = 0
KANS 162010Z 02012G17KT 16/08 A2994 RMK A01 T01550084  RH  063%=      5-min Rain = 0
KANS 162011Z 03009G14KT 16/08 A2994 RMK A01 T01550084  RH  063%=      5-min Rain = 0
KANS 162012Z 03011KT 16/09 A2994 RMK A01 T01570085  RH  062%=      5-min Rain = 0
KANS 162013Z 02011KT 16/09 A2994 RMK A01 T01580085  RH  062%=      5-min Rain = 0
KANS 162014Z 03012KT 16/08 A2994 RMK A01 T01570084  RH  062%=      5-min Rain = 0
KANS 162015Z 03012KT 15/08 A2994 RMK A01 T01540084  RH  063%=      5-min Rain = 0
KANS 162016Z 03010KT 15/09 A2994 RMK A01 T01530085  RH  064%=      5-min Rain = 0
KANS 162017Z 03011KT 15/09 A2994 RMK A01 T01520085  RH  064%=      5-min Rain = 0
KANS 162018Z 03013KT 15/09 A2994 RMK A01 T01520085  RH  064%=      5-min Rain = 0
KANS 162019Z 03013KT 15/08 A2994 RMK A01 T01540083  RH  063%=      5-min Rain = 0
KANS 162020Z 03013KT 15/08 A2994 RMK A01 T01540083  RH  063%=      5-min Rain = 0
KANS 162021Z 05011KT 15/08 A2994 RMK A01 T01530084  RH  063%=      5-min Rain = 0
KANS 162022Z 04012KT 15/08 A2994 RMK A01 T01530084  RH  063%=      5-min Rain = 0
KANS 162023Z 03013KT 15/08 A2994 RMK A01 T01530084  RH  063%=      5-min Rain = 0
KANS 162024Z 03011KT 15/08 A2994 RMK A01 T01540083  RH  063%=      5-min Rain = 0
KANS 162025Z 04009KT 15/08 A2994 RMK A01 T01540082  RH  062%=      5-min Rain = 0
KANS 162026Z 03009KT 16/09 A2994 RMK A01 T01550085  RH  063%=      5-min Rain = 0
KANS 162027Z 03011KT 16/09 A2994 RMK A01 T01570086  RH  062%=      5-min Rain = 0
KANS 162028Z 03011KT 16/09 A2994 RMK A01 T01590086  RH  062%=      5-min Rain = 0
KANS 162029Z 03010KT 16/09 A2994 RMK A01 T01590085  RH  061%=      5-min Rain = 0
KANS 162030Z 02010G15KT 16/09 A2994 RMK A01 T01580085  RH  062%=      5-min Rain = 0
KANS 162031Z 02014KT 16/08 A2993 RMK A01 T01570084  RH  061%=      5-min Rain = 0
KANS 162032Z 03012G17KT 16/08 A2993 RMK A01 T01580083  RH  061%=      5-min Rain = 0
KANS 162033Z 02012G17KT 16/08 A2993 RMK A01 T01580084  RH  061%=      5-min Rain = 0
KANS 162034Z 02012KT 16/08 A2993 RMK A01 T01570084  RH  061%=      5-min Rain = 0
KANS 162035Z 02013G18KT 16/08 A2993 RMK A01 T01570084  RH  061%=      5-min Rain = 0
KANS 162036Z 02014KT 16/08 A2993 RMK A01 T01570083  RH  061%=      5-min Rain = 0
KANS 162037Z 03012KT 16/08 A2993 RMK A01 T01560083  RH  062%=      5-min Rain = 0
KANS 162038Z 04011KT 16/08 A2993 RMK A01 T01570084  RH  062%=      5-min Rain = 0
KANS 162039Z 04010KT 16/08 A2993 RMK A01 T01590084  RH  061%=      5-min Rain = 0
KANS 162040Z 04011G16KT 16/09 A2993 RMK A01 T01610085  RH  061%=      5-min Rain = 0
KANS 162041Z 05011KT 16/08 A2992 RMK A01 T01610084  RH  060%=      5-min Rain = 0
KANS 162042Z 04009KT 16/08 A2992 RMK A01 T01610084  RH  061%=      5-min Rain = 0
KANS 162043Z 04007KT 16/09 A2992 RMK A01 T01610086  RH  061%=      5-min Rain = 0
KANS 162044Z 04008KT 16/09 A2992 RMK A01 T01630086  RH  060%=      5-min Rain = 0
KANS 162045Z 04012G18KT 16/09 A2993 RMK A01 T01640085  RH  059%=      5-min Rain = 0
KANS 162046Z 03012KT 16/08 A2993 RMK A01 T01640083  RH  059%=      5-min Rain = 0
KANS 162047Z 03013KT 16/08 A2993 RMK A01 T01620083  RH  059%=      5-min Rain = 0
KANS 162048Z 04012KT 16/08 A2993 RMK A01 T01620083  RH  059%=      5-min Rain = 0
KANS 162049Z 05012G17KT 16/08 A2993 RMK A01 T01620084  RH  060%=      5-min Rain = 0
KANS 162050Z 04013KT 16/08 A2993 RMK A01 T01630084  RH  060%=      5-min Rain = 0
KANS 162051Z 05013KT 16/08 A2992 RMK A01 T01620083  RH  059%=      5-min Rain = 0
KANS 162052Z 04009KT 16/08 A2992 RMK A01 T01610084  RH  060%=      5-min Rain = 0
KANS 162053Z 05010G15KT 16/09 A2992 RMK A01 T01610085  RH  061%=      5-min Rain = 0
KANS 162054Z 04011KT 16/09 A2992 RMK A01 T01630085  RH  060%=      5-min Rain = 0
KANS 162055Z 04010KT 16/09 A2992 RMK A01 T01630085  RH  060%=      5-min Rain = 0
KANS 162056Z 05010KT 16/08 A2992 RMK A01 T01630084  RH  060%=      5-min Rain = 0
KANS 162057Z 04011KT 16/08 A2992 RMK A01 T01630084  RH  059%=      5-min Rain = 0
KANS 162058Z 04012KT 16/08 A2992 RMK A01 T01620083  RH  060%=      5-min Rain = 0
KANS 162059Z 04011KT 16/08 A2992 RMK A01 T01620084  RH  060%=      5-min Rain = 0
KANS 162100Z 04010KT 16/08 A2992 RMK A01 T01610083  RH  060%=      5-min Rain = 0
KANS 162101Z 03011KT 16/08 A2993 RMK A01 T01610084  RH  060%=      5-min Rain = 0
KANS 162102Z 04010KT 16/08 A2993 RMK A01 T01620084  RH  060%=      5-min Rain = 0
KANS 162103Z 03012KT 16/08 A2993 RMK A01 T01630084  RH  059%=      5-min Rain = 0
KANS 162104Z 02010G15KT 17/09 A2993 RMK A01 T01650085  RH  059%=      5-min Rain = 0
KANS 162105Z 02011KT 17/09 A2994 RMK A01 T01690086  RH  058%=      5-min Rain = 0
KANS 162106Z 03012KT 17/08 A2994 RMK A01 T01700083  RH  057%=      5-min Rain = 0
KANS 162107Z 03013KT 17/08 A2994 RMK A01 T01690082  RH  057%=      5-min Rain = 0
KANS 162108Z 03010KT 17/08 A2994 RMK A01 T01670082  RH  057%=      5-min Rain = 0
KANS 162109Z 01011G16KT 17/08 A2993 RMK A01 T01680084  RH  058%=      5-min Rain = 0
KANS 162110Z 01012KT 17/08 A2993 RMK A01 T01700083  RH  057%=      5-min Rain = 0
KANS 162111Z 01008KT 17/08 A2993 RMK A01 T01700084  RH  057%=      5-min Rain = 0
KANS 162112Z 03013KT 17/08 A2993 RMK A01 T01700084  RH  057%=      5-min Rain = 0
KANS 162113Z 03013KT 17/08 A2993 RMK A01 T01690082  RH  056%=      5-min Rain = 0
KANS 162114Z 04012KT 17/08 A2993 RMK A01 T01670082  RH  057%=      5-min Rain = 0
KANS 162115Z 02012G17KT 17/08 A2993 RMK A01 T01670083  RH  057%=      5-min Rain = 0
KANS 162116Z 02013KT 17/08 A2993 RMK A01 T01670080  RH  056%=      5-min Rain = 0
KANS 162117Z 03013KT 17/08 A2993 RMK A01 T01670079  RH  056%=      5-min Rain = 0
KANS 162118Z 03013G18KT 17/08 A2993 RMK A01 T01670080  RH  056%=      5-min Rain = 0
KANS 162119Z 04010KT 17/08 A2993 RMK A01 T01660080  RH  057%=      5-min Rain = 0
KANS 162120Z 04008KT 17/08 A2993 RMK A01 T01660080  RH  057%=      5-min Rain = 0
KANS 162121Z 03012KT 17/08 A2993 RMK A01 T01670081  RH  057%=      5-min Rain = 0
KANS 162122Z 05013KT 17/08 A2993 RMK A01 T01670080  RH  056%=      5-min Rain = 0
KANS 162123Z 06012KT 17/08 A2992 RMK A01 T01670079  RH  056%=      5-min Rain = 0
KANS 162124Z 06010KT 17/08 A2992 RMK A01 T01670078  RH  056%=      5-min Rain = 0
KANS 162125Z 04009KT 17/08 A2992 RMK A01 T01660078  RH  056%=      5-min Rain = 0
KANS 162126Z 03009KT 17/08 A2992 RMK A01 T01670079  RH  056%=      5-min Rain = 0
KANS 162127Z 03009KT 17/08 A2993 RMK A01 T01670078  RH  055%=      5-min Rain = 0
KANS 162128Z 02010KT 17/08 A2993 RMK A01 T01670077  RH  055%=      5-min Rain = 0
KANS 162129Z 03008KT 17/08 A2992 RMK A01 T01670076  RH  055%=      5-min Rain = 0
KANS 162130Z 05010KT 17/08 A2992 RMK A01 T01680077  RH  055%=      5-min Rain = 0
KANS 162131Z 05012KT 17/08 A2992 RMK A01 T01700080  RH  055%=      5-min Rain = 0
KANS 162132Z 04014KT 17/08 A2991 RMK A01 T01710080  RH  055%=      5-min Rain = 0
KANS 162133Z 05012KT 17/08 A2991 RMK A01 T01710080  RH  055%=      5-min Rain = 0
KANS 162134Z 04010G15KT 17/08 A2991 RMK A01 T01700080  RH  055%=      5-min Rain = 0
KANS 162135Z 06012KT 17/08 A2991 RMK A01 T01700081  RH  056%=      5-min Rain = 0
KANS 162136Z 05011KT 17/08 A2991 RMK A01 T01710078  RH  054%=      5-min Rain = 0
KANS 162137Z 04013G18KT 17/08 A2991 RMK A01 T01720079  RH  054%=      5-min Rain = 0
KANS 162138Z 03015KT 17/08 A2991 RMK A01 T01730077  RH  053%=      5-min Rain = 0
KANS 162139Z 03014KT 17/08 A2991 RMK A01 T01710077  RH  054%=      5-min Rain = 0
KANS 162140Z 05012G18KT 17/08 A2991 RMK A01 T01710077  RH  054%=      5-min Rain = 0
KANS 162141Z 05013KT 17/08 A2991 RMK A01 T01710078  RH  054%=      5-min Rain = 0
KANS 162142Z 04013KT 17/08 A2991 RMK A01 T01710075  RH  053%=      5-min Rain = 0
KANS 162143Z 04015KT 17/07 A2991 RMK A01 T01710074  RH  053%=      5-min Rain = 0
KANS 162144Z 04012G17KT 17/08 A2991 RMK A01 T01700075  RH  053%=      5-min Rain = 0
KANS 162145Z 04013KT 17/08 A2991 RMK A01 T01700075  RH  054%=      5-min Rain = 0
KANS 162146Z 04011KT 17/08 A2991 RMK A01 T01710075  RH  053%=      5-min Rain = 0
KANS 162147Z 04013KT 17/08 A2991 RMK A01 T01710076  RH  053%=      5-min Rain = 0
KANS 162148Z 04010KT 17/08 A2991 RMK A01 T01720078  RH  054%=      5-min Rain = 0
KANS 162149Z 05010G15KT 17/08 A2991 RMK A01 T01730079  RH  054%=      5-min Rain = 0
KANS 162150Z 04013KT 17/08 A299 RMK A01 T01740079  RH  053%=      5-min Rain = 0
KANS 162151Z 06011G16KT 17/08 A299 RMK A01 T01740079  RH  054%=      5-min Rain = 0
KANS 162152Z 05012KT 17/08 A299 RMK A01 T01730079  RH  054%=      5-min Rain = 0
KANS 162153Z 06013G18KT 17/08 A299 RMK A01 T01730079  RH  054%=      5-min Rain = 0
KANS 162154Z 05013KT 17/08 A299 RMK A01 T01730078  RH  054%=      5-min Rain = 0
KANS 162155Z 06012G17KT 17/08 A299 RMK A01 T01720078  RH  054%=      5-min Rain = 0
KANS 162156Z 07014KT 17/08 A299 RMK A01 T01720080  RH  054%=      5-min Rain = 0
KANS 162157Z 07015KT 17/08 A299 RMK A01 T01740078  RH  053%=      5-min Rain = 0
KANS 162158Z 06011KT 17/08 A299 RMK A01 T01740077  RH  053%=      5-min Rain = 0
KANS 162159Z 06013KT 18/08 A299 RMK A01 T01750078  RH  053%=      5-min Rain = 0
KANS 162200Z 05014KT 18/08 A299 RMK A01 T01760078  RH  053%=      5-min Rain = 0
KANS 162201Z 06012KT 18/08 A299 RMK A01 T01760077  RH  052%=      5-min Rain = 0
KANS 162202Z 06010KT 18/08 A299 RMK A01 T01760078  RH  052%=      5-min Rain = 0
KANS 162203Z 06009KT 18/08 A299 RMK A01 T01760077  RH  052%=      5-min Rain = 0
KANS 162204Z 06011G17KT 18/08 A299 RMK A01 T01760078  RH  052%=      5-min Rain = 0
KANS 162205Z 06014KT 18/08 A299 RMK A01 T01760076  RH  052%=      5-min Rain = 0
KANS 162206Z 06012KT 18/08 A299 RMK A01 T01760075  RH  051%=      5-min Rain = 0
KANS 162207Z 07011KT 18/08 A299 RMK A01 T01760076  RH  052%=      5-min Rain = 0
KANS 162208Z 06013KT 18/08 A299 RMK A01 T01770075  RH  051%=      5-min Rain = 0
KANS 162209Z 07011KT 18/08 A299 RMK A01 T01760075  RH  051%=      5-min Rain = 0
KANS 162210Z 07012KT 18/08 A299 RMK A01 T01760076  RH  052%=      5-min Rain = 0
KANS 162211Z 06012G18KT 18/08 A299 RMK A01 T01760078  RH  052%=      5-min Rain = 0
KANS 162212Z 04013G19KT 18/08 A299 RMK A01 T01780079  RH  052%=      5-min Rain = 0
KANS 162213Z 03015KT 18/08 A2991 RMK A01 T01790081  RH  053%=      5-min Rain = 0
KANS 162214Z 04013KT 18/08 A2991 RMK A01 T01790081  RH  053%=      5-min Rain = 0
KANS 162215Z 03013G18KT 18/08 A2991 RMK A01 T01780081  RH  053%=      5-min Rain = 0
KANS 162216Z 04015G20KT 18/08 A2991 RMK A01 T01770080  RH  053%=      5-min Rain = 0
KANS 162217Z 03015KT 18/08 A2991 RMK A01 T01770079  RH  053%=      5-min Rain = 0
KANS 162218Z 04014KT 18/08 A2991 RMK A01 T01760077  RH  052%=      5-min Rain = 0
KANS 162219Z 04013KT 18/08 A2992 RMK A01 T01760078  RH  052%=      5-min Rain = 0
KANS 162220Z 04013KT 18/08 A2992 RMK A01 T01760078  RH  053%=      5-min Rain = 0
KANS 162221Z 04013KT 18/08 A2992 RMK A01 T01760078  RH  053%=      5-min Rain = 0
KANS 162222Z 04010KT 18/08 A2992 RMK A01 T01760079  RH  053%=      5-min Rain = 0
KANS 162223Z 05011KT 18/08 A2992 RMK A01 T01770079  RH  052%=      5-min Rain = 0
KANS 162224Z 03012G17KT 18/08 A2992 RMK A01 T01770079  RH  052%=      5-min Rain = 0
KANS 162225Z 02015G21KT 18/08 A2992 RMK A01 T01770078  RH  052%=      5-min Rain = 0
KANS 162226Z 03015G20KT 18/08 A2992 RMK A01 T01760079  RH  053%=      5-min Rain = 0
KANS 162227Z 03014G21KT 18/08 A2992 RMK A01 T01760079  RH  053%=      5-min Rain = 0
KANS 162228Z 03017KT 18/08 A2992 RMK A01 T01760078  RH  053%=      5-min Rain = 0
KANS 162229Z 03015KT 17/08 A2992 RMK A01 T01740078  RH  053%=      5-min Rain = 0
KANS 162230Z 03014G19KT 17/08 A2992 RMK A01 T01720077  RH  054%=      5-min Rain = 0
KANS 162231Z 03017KT 17/08 A2993 RMK A01 T01710077  RH  054%=      5-min Rain = 0
KANS 162232Z 04016KT 17/08 A2992 RMK A01 T01700077  RH  054%=      5-min Rain = 0
KANS 162233Z 04012KT 17/08 A2992 RMK A01 T01700078  RH  054%=      5-min Rain = 0
KANS 162234Z 04011KT 17/08 A2992 RMK A01 T01710078  RH  054%=      5-min Rain = 0
KANS 162235Z 04011KT 17/08 A2992 RMK A01 T01730079  RH  054%=      5-min Rain = 0
KANS 162236Z 04014G19KT 17/08 A2992 RMK A01 T01740077  RH  053%=      5-min Rain = 0
KANS 162237Z 03013KT 17/08 A2993 RMK A01 T01730077  RH  053%=      5-min Rain = 0
KANS 162238Z 03013KT 17/08 A2993 RMK A01 T01720077  RH  054%=      5-min Rain = 0
KANS 162239Z 05012G18KT 17/08 A2993 RMK A01 T01720077  RH  054%=      5-min Rain = 0
KANS 162240Z 05013G18KT 17/08 A2993 RMK A01 T01720076  RH  053%=      5-min Rain = 0
KANS 162241Z 05013KT 17/08 A2993 RMK A01 T01710076  RH  053%=      5-min Rain = 0
KANS 162242Z 03014KT 17/08 A2993 RMK A01 T01710076  RH  054%=      5-min Rain = 0
KANS 162243Z 03016KT 17/08 A2993 RMK A01 T01710075  RH  053%=      5-min Rain = 0
KANS 162244Z 04012KT 17/08 A2993 RMK A01 T01710076  RH  054%=      5-min Rain = 0
KANS 162245Z 04015KT 17/08 A2993 RMK A01 T01710075  RH  053%=      5-min Rain = 0
KANS 162246Z 04013KT 17/07 A2993 RMK A01 T01710074  RH  053%=      5-min Rain = 0
KANS 162247Z 03013G18KT 17/07 A2993 RMK A01 T01690074  RH  053%=      5-min Rain = 0
KANS 162248Z 03013KT 17/07 A2993 RMK A01 T01690074  RH  053%=      5-min Rain = 0
KANS 162249Z 03014KT 17/07 A2993 RMK A01 T01690073  RH  053%=      5-min Rain = 0
KANS 162250Z 03012KT 17/07 A2993 RMK A01 T01690073  RH  053%=      5-min Rain = 0
KANS 162251Z 04009KT 17/07 A2993 RMK A01 T01700073  RH  053%=      5-min Rain = 0
KANS 162252Z 04010KT 17/07 A2993 RMK A01 T01710074  RH  053%=      5-min Rain = 0
KANS 162253Z 04011G16KT 17/07 A2993 RMK A01 T01720074  RH  053%=      5-min Rain = 0
KANS 162254Z 05014G20KT 17/07 A2993 RMK A01 T01730074  RH  052%=      5-min Rain = 0
KANS 162255Z 04014G20KT 17/07 A2993 RMK A01 T01730073  RH  052%=      5-min Rain = 0
KANS 162256Z 04012KT 17/07 A2993 RMK A01 T01720072  RH  052%=      5-min Rain = 0
KANS 162257Z 04012KT 17/07 A2993 RMK A01 T01720072  RH  052%=      5-min Rain = 0
KANS 162258Z 04014KT 17/07 A2993 RMK A01 T01710072  RH  052%=      5-min Rain = 0
KANS 162259Z 04012G17KT 17/07 A2993 RMK A01 T01700071  RH  052%=      5-min Rain = 0
KANS 162300Z 05012G18KT 17/07 A2993 RMK A01 T01690072  RH  053%=      5-min Rain = 0
KANS 162301Z 05015G20KT 17/07 A2993 RMK A01 T01700071  RH  052%=      5-min Rain = 0
KANS 162302Z 05014G19KT 17/07 A2993 RMK A01 T01700071  RH  052%=      5-min Rain = 0
KANS 162303Z 04014G19KT 17/07 A2993 RMK A01 T01690071  RH  052%=      5-min Rain = 0
KANS 162304Z 04011KT 17/07 A2993 RMK A01 T01690071  RH  052%=      5-min Rain = 0
KANS 162305Z 03012KT 17/07 A2993 RMK A01 T01690071  RH  052%=      5-min Rain = 0
KANS 162306Z 04012KT 17/07 A2993 RMK A01 T01700070  RH  052%=      5-min Rain = 0
KANS 162307Z 05010KT 17/07 A2993 RMK A01 T01700070  RH  052%=      5-min Rain = 0
KANS 162308Z 04010KT 17/07 A2993 RMK A01 T01690070  RH  052%=      5-min Rain = 0
KANS 162309Z 03012KT 17/07 A2993 RMK A01 T01700070  RH  052%=      5-min Rain = 0
KANS 162310Z 03013KT 17/07 A2994 RMK A01 T01700069  RH  051%=      5-min Rain = 0
KANS 162311Z 03012KT 17/07 A2994 RMK A01 T01690069  RH  052%=      5-min Rain = 0
KANS 162312Z 04011KT 17/07 A2994 RMK A01 T01680069  RH  052%=      5-min Rain = 0
KANS 162313Z 05010KT 17/07 A2994 RMK A01 T01680070  RH  052%=      5-min Rain = 0
KANS 162314Z 05014KT 17/07 A2994 RMK A01 T01690069  RH  052%=      5-min Rain = 0
KANS 162315Z 06012KT 17/07 A2994 RMK A01 T01680068  RH  051%=      5-min Rain = 0
KANS 162316Z 07012KT 17/07 A2994 RMK A01 T01670068  RH  052%=      5-min Rain = 0
KANS 162317Z 05011KT 17/07 A2994 RMK A01 T01660069  RH  052%=      5-min Rain = 0
KANS 162318Z 06013KT 17/07 A2994 RMK A01 T01670068  RH  052%=      5-min Rain = 0
KANS 162319Z 06013G18KT 17/07 A2994 RMK A01 T01670068  RH  052%=      5-min Rain = 0
KANS 162320Z 06013KT 17/07 A2994 RMK A01 T01670068  RH  052%=      5-min Rain = 0
KANS 162321Z 05011KT 17/07 A2994 RMK A01 T01670068  RH  052%=      5-min Rain = 0
KANS 162322Z 05011KT 17/07 A2994 RMK A01 T01670067  RH  052%=      5-min Rain = 0
KANS 162323Z 04011KT 17/07 A2994 RMK A01 T01670067  RH  052%=      5-min Rain = 0
KANS 162324Z 04012KT 17/07 A2994 RMK A01 T01670066  RH  051%=      5-min Rain = 0
KANS 162325Z 04012KT 17/07 A2994 RMK A01 T01670066  RH  051%=      5-min Rain = 0
KANS 162326Z 04012KT 17/06 A2994 RMK A01 T01670064  RH  051%=      5-min Rain = 0
KANS 162327Z 05013KT 17/06 A2994 RMK A01 T01670064  RH  051%=      5-min Rain = 0
KANS 162328Z 05013KT 17/06 A2994 RMK A01 T01660063  RH  051%=      5-min Rain = 0
KANS 162329Z 05013KT 17/06 A2994 RMK A01 T01660064  RH  051%=      5-min Rain = 0
KANS 162330Z 05011G16KT 17/06 A2995 RMK A01 T01660064  RH  051%=      5-min Rain = 0
KANS 162331Z 04014G19KT 17/06 A2995 RMK A01 T01670064  RH  051%=      5-min Rain = 0
KANS 162332Z 04013G18KT 17/06 A2995 RMK A01 T01670063  RH  050%=      5-min Rain = 0
KANS 162333Z 04014KT 17/06 A2995 RMK A01 T01670063  RH  050%=      5-min Rain = 0
KANS 162334Z 04013G18KT 17/06 A2995 RMK A01 T01670063  RH  050%=      5-min Rain = 0
KANS 162335Z 04014G19KT 17/06 A2995 RMK A01 T01670063  RH  050%=      5-min Rain = 0
KANS 162336Z 05014G19KT 17/06 A2995 RMK A01 T01670063  RH  050%=      5-min Rain = 0
KANS 162337Z 04014G19KT 17/06 A2995 RMK A01 T01660063  RH  050%=      5-min Rain = 0
KANS 162338Z 04016KT 17/06 A2994 RMK A01 T01660063  RH  051%=      5-min Rain = 0
KANS 162339Z 04016KT 17/06 A2994 RMK A01 T01660063  RH  050%=      5-min Rain = 0
KANS 162340Z 05013KT 17/06 A2995 RMK A01 T01650062  RH  051%=      5-min Rain = 0
KANS 162341Z 05012KT 17/06 A2994 RMK A01 T01650063  RH  051%=      5-min Rain = 0
KANS 162342Z 06012KT 17/06 A2994 RMK A01 T01650063  RH  051%=      5-min Rain = 0
KANS 162343Z 06013KT 17/06 A2994 RMK A01 T01650062  RH  051%=      5-min Rain = 0
KANS 162344Z 06012KT 16/06 A2995 RMK A01 T01640062  RH  051%=      5-min Rain = 0
KANS 162345Z 06011G19KT 16/06 A2995 RMK A01 T01640062  RH  051%=      5-min Rain = 0
KANS 162346Z 05013G19KT 16/06 A2995 RMK A01 T01640061  RH  051%=      5-min Rain = 0
KANS 162347Z 05014G19KT 16/06 A2995 RMK A01 T01640061  RH  051%=      5-min Rain = 0
KANS 162348Z 05012KT 16/06 A2995 RMK A01 T01640061  RH  051%=      5-min Rain = 0
KANS 162349Z 04012KT 16/06 A2995 RMK A01 T01640061  RH  050%=      5-min Rain = 0
KANS 162350Z 05013KT 16/06 A2995 RMK A01 T01640060  RH  050%=      5-min Rain = 0
KANS 162351Z 06013KT 16/06 A2995 RMK A01 T01630059  RH  050%=      5-min Rain = 0
KANS 162352Z 06013KT 16/06 A2995 RMK A01 T01630058  RH  050%=      5-min Rain = 0
KANS 162353Z 05013G19KT 16/06 A2995 RMK A01 T01630058  RH  050%=      5-min Rain = 0
KANS 162354Z 06013G19KT 16/06 A2995 RMK A01 T01620058  RH  050%=      5-min Rain = 0
KANS 162355Z 06013KT 16/06 A2994 RMK A01 T01620057  RH  050%=      5-min Rain = 0
KANS 162356Z 06014KT 16/06 A2994 RMK A01 T01620057  RH  050%=      5-min Rain = 0
KANS 162357Z 05014KT 16/06 A2994 RMK A01 T01620058  RH  050%=      5-min Rain = 0
KANS 162358Z 06014G20KT 16/06 A2994 RMK A01 T01620058  RH  050%=      5-min Rain = 0
KANS 162359Z 06013G20KT 16/06 A2994 RMK A01 T01620060  RH  051%=      5-min Rain = 0
KANS 170000Z 05018KT 16/06 A2994 RMK A01 T01620060  RH  051%=      5-min Rain = 0
KANS 170001Z 05013G18KT 16/06 A2995 RMK A01 T01600060  RH  051%=      5-min Rain = 0
KANS 170002Z 06013KT 16/06 A2995 RMK A01 T01600060  RH  052%=      5-min Rain = 0
KANS 170003Z 05013G18KT 16/06 A2995 RMK A01 T01600060  RH  052%=      5-min Rain = 0
KANS 170004Z 06015KT 16/06 A2995 RMK A01 T01600060  RH  051%=      5-min Rain = 0
KANS 170005Z 05013KT 16/06 A2995 RMK A01 T01590060  RH  051%=      5-min Rain = 0
KANS 170006Z 05012G18KT 16/06 A2995 RMK A01 T01590060  RH  052%=      5-min Rain = 0
KANS 170007Z 04015KT 16/06 A2995 RMK A01 T01590059  RH  051%=      5-min Rain = 0
KANS 170008Z 04014KT 16/06 A2995 RMK A01 T01590058  RH  051%=      5-min Rain = 0
KANS 170009Z 04014KT 16/06 A2995 RMK A01 T01590058  RH  051%=      5-min Rain = 0
KANS 170010Z 05012KT 16/06 A2995 RMK A01 T01580058  RH  051%=      5-min Rain = 0
KANS 170011Z 05012KT 16/06 A2995 RMK A01 T01580058  RH  051%=      5-min Rain = 0
KANS 170012Z 04013KT 16/06 A2995 RMK A01 T01580058  RH  051%=      5-min Rain = 0
KANS 170013Z 05014KT 16/06 A2995 RMK A01 T01580057  RH  051%=      5-min Rain = 0
KANS 170014Z 05012KT 16/06 A2996 RMK A01 T01580057  RH  051%=      5-min Rain = 0
KANS 170015Z 05012KT 16/06 A2996 RMK A01 T01580057  RH  051%=      5-min Rain = 0
KANS 170016Z 04011KT 16/06 A2996 RMK A01 T01580057  RH  051%=      5-min Rain = 0
KANS 170017Z 05012KT 16/06 A2996 RMK A01 T01580057  RH  051%=      5-min Rain = 0
KANS 170018Z 05013KT 16/06 A2996 RMK A01 T01580056  RH  051%=      5-min Rain = 0
KANS 170019Z 05013KT 16/06 A2996 RMK A01 T01580055  RH  050%=      5-min Rain = 0
KANS 170020Z 05015KT 16/06 A2996 RMK A01 T01580055  RH  050%=      5-min Rain = 0
KANS 170021Z 06011KT 16/05 A2996 RMK A01 T01580054  RH  050%=      5-min Rain = 0
KANS 170022Z 06013G18KT 16/06 A2996 RMK A01 T01590055  RH  050%=      5-min Rain = 0
KANS 170023Z 05015KT 16/06 A2996 RMK A01 T01590055  RH  050%=      5-min Rain = 0
KANS 170024Z 05015KT 16/06 A2996 RMK A01 T01580055  RH  050%=      5-min Rain = 0
KANS 170025Z 05013KT 16/05 A2996 RMK A01 T01570054  RH  050%=      5-min Rain = 0
KANS 170026Z 05009KT 16/06 A2996 RMK A01 T01570055  RH  051%=      5-min Rain = 0
KANS 170027Z 05011G16KT 16/06 A2996 RMK A01 T01570055  RH  051%=      5-min Rain = 0
KANS 170028Z 05014KT 16/06 A2996 RMK A01 T01570055  RH  051%=      5-min Rain = 0
KANS 170029Z 05013KT 16/06 A2996 RMK A01 T01570055  RH  051%=      5-min Rain = 0
KANS 170030Z 05012KT 16/06 A2996 RMK A01 T01560055  RH  051%=      5-min Rain = 0
KANS 170031Z 05011G17KT 16/06 A2996 RMK A01 T01560055  RH  051%=      5-min Rain = 0
KANS 170032Z 05014KT 16/06 A2996 RMK A01 T01560055  RH  051%=      5-min Rain = 0
KANS 170033Z 05012KT 16/06 A2996 RMK A01 T01560055  RH  051%=      5-min Rain = 0
KANS 170034Z 05014G20KT 16/06 A2996 RMK A01 T01560055  RH  051%=      5-min Rain = 0
KANS 170035Z 05012KT 16/06 A2995 RMK A01 T01560055  RH  051%=      5-min Rain = 0
KANS 170036Z 05014G19KT 16/06 A2995 RMK A01 T01560055  RH  051%=      5-min Rain = 0
KANS 170037Z 05017KT 16/06 A2995 RMK A01 T01560055  RH  051%=      5-min Rain = 0
KANS 170038Z 05017G22KT 16/05 A2995 RMK A01 T01550054  RH  051%=      5-min Rain = 0
KANS 170039Z 04016KT 16/05 A2995 RMK A01 T01550053  RH  051%=      5-min Rain = 0
KANS 170040Z 05014KT 16/05 A2995 RMK A01 T01550053  RH  051%=      5-min Rain = 0
KANS 170041Z 04012KT 16/05 A2995 RMK A01 T01550054  RH  051%=      5-min Rain = 0
KANS 170042Z 04014KT 16/05 A2995 RMK A01 T01550053  RH  051%=      5-min Rain = 0
KANS 170043Z 05011KT 16/05 A2996 RMK A01 T01550053  RH  051%=      5-min Rain = 0
KANS 170044Z 05011KT 16/05 A2996 RMK A01 T01550054  RH  051%=      5-min Rain = 0
KANS 170045Z 05014G20KT 15/05 A2995 RMK A01 T01540054  RH  051%=      5-min Rain = 0
KANS 170046Z 06014G21KT 15/05 A2995 RMK A01 T01540054  RH  051%=      5-min Rain = 0
KANS 170047Z 05014G21KT 15/06 A2995 RMK A01 T01530055  RH  052%=      5-min Rain = 0
KANS 170048Z 06016G21KT 15/06 A2995 RMK A01 T01530056  RH  053%=      5-min Rain = 0
KANS 170049Z 06013G18KT 15/06 A2995 RMK A01 T01510057  RH  053%=      5-min Rain = 0
KANS 170050Z 06014KT 15/06 A2995 RMK A01 T01500057  RH  054%=      5-min Rain = 0
KANS 170051Z 06013KT 15/06 A2995 RMK A01 T01500057  RH  054%=      5-min Rain = 0
KANS 170052Z 06012G18KT 15/06 A2995 RMK A01 T01490058  RH  054%=      5-min Rain = 0
KANS 170053Z 06012KT 15/06 A2996 RMK A01 T01490058  RH  054%=      5-min Rain = 0
KANS 170054Z 06013KT 15/06 A2996 RMK A01 T01490058  RH  054%=      5-min Rain = 0
KANS 170055Z 06012G18KT 15/06 A2996 RMK A01 T01490058  RH  054%=      5-min Rain = 0
KANS 170056Z 06014G20KT 15/06 A2996 RMK A01 T01480058  RH  055%=      5-min Rain = 0
KANS 170057Z 06014KT 15/06 A2996 RMK A01 T01480058  RH  055%=      5-min Rain = 0
KANS 170058Z 06015G23KT 15/06 A2996 RMK A01 T01470058  RH  055%=      5-min Rain = 0
KANS 170059Z 06018KT 15/06 A2995 RMK A01 T01470058  RH  055%=      5-min Rain = 0
KANS 170100Z 06014G19KT 15/06 A2995 RMK A01 T01460059  RH  056%=      5-min Rain = 0
KANS 170101Z 06014KT 15/06 A2995 RMK A01 T01450059  RH  056%=      5-min Rain = 0
KANS 170102Z 05015G21KT 14/06 A2995 RMK A01 T01440059  RH  056%=      5-min Rain = 0
KANS 170103Z 04017G22KT 14/06 A2995 RMK A01 T01440059  RH  056%=      5-min Rain = 0
KANS 170104Z 05016G21KT 14/06 A2995 RMK A01 T01440058  RH  056%=      5-min Rain = 0
KANS 170105Z 06014G21KT 14/06 A2995 RMK A01 T01430058  RH  057%=      5-min Rain = 0
KANS 170106Z 05013KT 14/06 A2995 RMK A01 T01430058  RH  057%=      5-min Rain = 0
KANS 170107Z 05015G21KT 14/06 A2995 RMK A01 T01420058  RH  057%=      5-min Rain = 0
KANS 170108Z 05016KT 14/06 A2996 RMK A01 T01410058  RH  057%=      5-min Rain = 0
KANS 170109Z 05014G19KT 14/06 A2996 RMK A01 T01410058  RH  057%=      5-min Rain = 0
KANS 170110Z 05014G19KT 14/06 A2996 RMK A01 T01400058  RH  057%=      5-min Rain = 0
KANS 170111Z 05014KT 14/06 A2996 RMK A01 T01400058  RH  058%=      5-min Rain = 0
KANS 170112Z 06014G23KT 14/06 A2996 RMK A01 T01400057  RH  058%=      5-min Rain = 0
KANS 170113Z 05018G24KT 14/06 A2996 RMK A01 T01390057  RH  058%=      5-min Rain = 0
KANS 170114Z 05016G21KT 14/06 A2997 RMK A01 T01390057  RH  057%=      5-min Rain = 0
KANS 170115Z 05016KT 14/06 A2997 RMK A01 T01390056  RH  057%=      5-min Rain = 0
KANS 170116Z 05016G23KT 14/06 A2997 RMK A01 T01390056  RH  057%=      5-min Rain = 0
KANS 170117Z 05016KT 14/06 A2997 RMK A01 T01390056  RH  057%=      5-min Rain = 0
KANS 170118Z 05014G20KT 14/06 A2997 RMK A01 T01390056  RH  057%=      5-min Rain = 0
KANS 170119Z 05015G20KT 14/06 A2997 RMK A01 T01390056  RH  057%=      5-min Rain = 0
KANS 170120Z 05014G20KT 14/06 A2997 RMK A01 T01380056  RH  058%=      5-min Rain = 0
KANS 170121Z 05014KT 14/06 A2997 RMK A01 T01380056  RH  058%=      5-min Rain = 0
KANS 170122Z 06013G20KT 14/06 A2997 RMK A01 T01370056  RH  058%=      5-min Rain = 0
KANS 170123Z 05014G19KT 14/06 A2997 RMK A01 T01370056  RH  058%=      5-min Rain = 0
KANS 170124Z 06015G20KT 14/06 A2997 RMK A01 T01370056  RH  058%=      5-min Rain = 0
KANS 170125Z 06012G18KT 14/06 A2998 RMK A01 T01360056  RH  058%=      5-min Rain = 0
KANS 170126Z 05012G18KT 14/06 A2998 RMK A01 T01360055  RH  058%=      5-min Rain = 0
KANS 170127Z 06012G18KT 14/06 A2998 RMK A01 T01350055  RH  058%=      5-min Rain = 0
KANS 170128Z 06012KT 14/06 A2998 RMK A01 T01350055  RH  058%=      5-min Rain = 0
KANS 170129Z 06012KT 13/06 A2998 RMK A01 T01340055  RH  059%=      5-min Rain = 0
KANS 170130Z 06014KT 13/06 A2998 RMK A01 T01340055  RH  059%=      5-min Rain = 0
KANS 170131Z 05011KT 13/06 A2998 RMK A01 T01340055  RH  059%=      5-min Rain = 0
KANS 170132Z 06013G18KT 13/05 A2998 RMK A01 T01330054  RH  059%=      5-min Rain = 0
KANS 170133Z 06013G18KT 13/05 A2998 RMK A01 T01330054  RH  059%=      5-min Rain = 0
KANS 170134Z 06012KT 13/05 A2998 RMK A01 T01330054  RH  059%=      5-min Rain = 0
KANS 170135Z 06011KT 13/05 A2998 RMK A01 T01330054  RH  059%=      5-min Rain = 0
KANS 170136Z 06013G18KT 13/05 A2998 RMK A01 T01320054  RH  059%=      5-min Rain = 0
KANS 170137Z 06015KT 13/05 A2998 RMK A01 T01320054  RH  059%=      5-min Rain = 0
KANS 170138Z 06012G17KT 13/05 A2998 RMK A01 T01320054  RH  059%=      5-min Rain = 0
KANS 170139Z 06012G17KT 13/05 A2998 RMK A01 T01320054  RH  059%=      5-min Rain = 0
KANS 170140Z 06012G17KT 13/05 A2998 RMK A01 T01310053  RH  059%=      5-min Rain = 0
KANS 170141Z 05012KT 13/05 A2998 RMK A01 T01310053  RH  059%=      5-min Rain = 0
KANS 170142Z 05010KT 13/05 A2999 RMK A01 T01310053  RH  059%=      5-min Rain = 0
KANS 170143Z 05010KT 13/05 A2999 RMK A01 T01300053  RH  059%=      5-min Rain = 0
KANS 170144Z 05011KT 13/05 A2999 RMK A01 T01300053  RH  059%=      5-min Rain = 0
KANS 170145Z 05010G15KT 13/05 A2999 RMK A01 T01300052  RH  059%=      5-min Rain = 0
KANS 170146Z 05013KT 13/05 A2999 RMK A01 T01300052  RH  059%=      5-min Rain = 0
KANS 170147Z 05012KT 13/05 A30 RMK A01 T01300051  RH  059%=      5-min Rain = 0
KANS 170148Z 05010KT 13/05 A30 RMK A01 T01300050  RH  058%=      5-min Rain = 0
KANS 170149Z 05011KT 13/05 A30 RMK A01 T01290050  RH  059%=      5-min Rain = 0
KANS 170150Z 06012KT 13/05 A30 RMK A01 T01290050  RH  058%=      5-min Rain = 0
KANS 170151Z 06011KT 13/05 A30 RMK A01 T01290049  RH  058%=      5-min Rain = 0
KANS 170152Z 06011KT 13/05 A30 RMK A01 T01290048  RH  058%=      5-min Rain = 0
KANS 170153Z 05011KT 13/05 A30 RMK A01 T01290048  RH  058%=      5-min Rain = 0
KANS 170154Z 05011G16KT 13/05 A30 RMK A01 T01280047  RH  058%=      5-min Rain = 0
KANS 170155Z 05013KT 13/05 A30 RMK A01 T01280046  RH  057%=      5-min Rain = 0
KANS 170156Z 05013KT 13/05 A30 RMK A01 T01280045  RH  057%=      5-min Rain = 0
KANS 170157Z 05012G17KT 13/05 A30 RMK A01 T01280045  RH  057%=      5-min Rain = 0
KANS 170158Z 05013KT 13/05 A30 RMK A01 T01280045  RH  057%=      5-min Rain = 0
KANS 170159Z 05013G18KT 13/04 A30 RMK A01 T01280044  RH  057%=      5-min Rain = 0
KANS 170200Z 05011KT 13/04 A30 RMK A01 T01280044  RH  057%=      5-min Rain = 0
KANS 170201Z 05010KT 13/04 A30 RMK A01 T01280044  RH  057%=      5-min Rain = 0
KANS 170202Z 04013G19KT 13/04 A30 RMK A01 T01270044  RH  057%=      5-min Rain = 0
KANS 170203Z 05012G18KT 13/04 A30 RMK A01 T01270044  RH  057%=      5-min Rain = 0
KANS 170204Z 05014G20KT 13/04 A30 RMK A01 T01270043  RH  057%=      5-min Rain = 0
KANS 170205Z 05013KT 13/04 A30 RMK A01 T01270043  RH  057%=      5-min Rain = 0
KANS 170206Z 05015KT 13/04 A30 RMK A01 T01270043  RH  057%=      5-min Rain = 0
KANS 170207Z 05013G18KT 13/04 A3001 RMK A01 T01270043  RH  057%=      5-min Rain = 0
KANS 170208Z 05011G17KT 13/04 A3001 RMK A01 T01270043  RH  057%=      5-min Rain = 0
KANS 170209Z 05012KT 13/04 A3001 RMK A01 T01260043  RH  057%=      5-min Rain = 0
KANS 170210Z 05012KT 13/04 A3001 RMK A01 T01260043  RH  057%=      5-min Rain = 0
KANS 170211Z 05013G18KT 13/04 A3001 RMK A01 T01250043  RH  057%=      5-min Rain = 0
KANS 170212Z 05013G19KT 13/04 A3001 RMK A01 T01250043  RH  057%=      5-min Rain = 0
KANS 170213Z 05013KT 13/04 A3001 RMK A01 T01250043  RH  057%=      5-min Rain = 0
KANS 170214Z 05011KT 13/04 A3001 RMK A01 T01250043  RH  057%=      5-min Rain = 0
KANS 170215Z 05012KT 13/04 A3001 RMK A01 T01250043  RH  057%=      5-min Rain = 0
KANS 170216Z 05015G20KT 12/04 A3001 RMK A01 T01240043  RH  058%=      5-min Rain = 0
KANS 170217Z 05013KT 12/04 A3001 RMK A01 T01240043  RH  058%=      5-min Rain = 0
KANS 170218Z 05015KT 12/04 A3001 RMK A01 T01240043  RH  058%=      5-min Rain = 0
KANS 170219Z 05013G19KT 12/04 A3002 RMK A01 T01240043  RH  058%=      5-min Rain = 0
KANS 170220Z 05013G18KT 12/04 A3002 RMK A01 T01240043  RH  058%=      5-min Rain = 0
KANS 170221Z 05013G18KT 12/04 A3002 RMK A01 T01230044  RH  058%=      5-min Rain = 0
KANS 170222Z 05011KT 12/04 A3002 RMK A01 T01230044  RH  059%=      5-min Rain = 0
KANS 170223Z 05011KT 12/04 A3002 RMK A01 T01220044  RH  059%=      5-min Rain = 0
KANS 170224Z 04011KT 12/04 A3003 RMK A01 T01210044  RH  059%=      5-min Rain = 0
KANS 170225Z 04009KT 12/05 A3003 RMK A01 T01210045  RH  059%=      5-min Rain = 0
KANS 170226Z 04010KT 12/04 A3003 RMK A01 T01200044  RH  060%=      5-min Rain = 0
KANS 170227Z 04014G20KT 12/04 A3003 RMK A01 T01200044  RH  060%=      5-min Rain = 0
KANS 170228Z 04015G22KT 12/04 A3003 RMK A01 T01190044  RH  060%=      5-min Rain = 0
KANS 170229Z 04015KT 12/04 A3003 RMK A01 T01200044  RH  060%=      5-min Rain = 0
KANS 170230Z 04013KT 12/04 A3003 RMK A01 T01200044  RH  060%=      5-min Rain = 0
KANS 170231Z 04014G21KT 12/04 A3003 RMK A01 T01200044  RH  060%=      5-min Rain = 0
KANS 170232Z 04017G22KT 12/04 A3003 RMK A01 T01190043  RH  059%=      5-min Rain = 0
KANS 170233Z 04017G24KT 12/04 A3004 RMK A01 T01190042  RH  059%=      5-min Rain = 0
KANS 170234Z 04017G23KT 12/04 A3004 RMK A01 T01200041  RH  059%=      5-min Rain = 0
KANS 170235Z 04016G21KT 12/04 A3004 RMK A01 T01200040  RH  058%=      5-min Rain = 0
KANS 170236Z 03013G18KT 12/04 A3004 RMK A01 T01190040  RH  059%=      5-min Rain = 0
KANS 170237Z 04016G22KT 12/04 A3004 RMK A01 T01190039  RH  058%=      5-min Rain = 0
KANS 170238Z 04015G23KT 12/04 A3004 RMK A01 T01180038  RH  058%=      5-min Rain = 0
KANS 170239Z 04018G23KT 12/04 A3004 RMK A01 T01180037  RH  058%=      5-min Rain = 0
KANS 170240Z 04016G22KT 12/04 A3004 RMK A01 T01180037  RH  057%=      5-min Rain = 0
KANS 170241Z 04015KT 12/04 A3004 RMK A01 T01180037  RH  058%=      5-min Rain = 0
KANS 170242Z 04016G22KT 12/04 A3004 RMK A01 T01180036  RH  058%=      5-min Rain = 0
KANS 170243Z 04016KT 12/04 A3004 RMK A01 T01170036  RH  058%=      5-min Rain = 0
KANS 170244Z 03016KT 12/04 A3004 RMK A01 T01170036  RH  058%=      5-min Rain = 0
KANS 170245Z 04015G21KT 12/04 A3004 RMK A01 T01160035  RH  057%=      5-min Rain = 0
KANS 170246Z 04016KT 12/04 A3005 RMK A01 T01160035  RH  057%=      5-min Rain = 0
KANS 170247Z 03015KT 12/03 A3005 RMK A01 T01160034  RH  057%=      5-min Rain = 0
KANS 170248Z 03014G19KT 12/04 A3005 RMK A01 T01160035  RH  057%=      5-min Rain = 0
KANS 170249Z 03015KT 12/04 A3005 RMK A01 T01150035  RH  058%=      5-min Rain = 0
KANS 170250Z 03014KT 12/04 A3005 RMK A01 T01150035  RH  058%=      5-min Rain = 0
KANS 170251Z 03016G22KT 11/03 A3005 RMK A01 T01140034  RH  058%=      5-min Rain = 0
KANS 170252Z 03016G22KT 11/03 A3005 RMK A01 T01140033  RH  058%=      5-min Rain = 0
KANS 170253Z 03018G26KT 11/03 A3005 RMK A01 T01140033  RH  058%=      5-min Rain = 0
KANS 170254Z 03016G21KT 11/03 A3004 RMK A01 T01130032  RH  057%=      5-min Rain = 0
KANS 170255Z 03019G25KT 11/03 A3004 RMK A01 T01130031  RH  057%=      5-min Rain = 0
KANS 170256Z 03020G28KT 11/03 A3004 RMK A01 T01120030  RH  057%=      5-min Rain = 0
KANS 170257Z 02018G27KT 11/03 A3004 RMK A01 T01120030  RH  057%=      5-min Rain = 0
KANS 170258Z 03020G26KT 11/03 A3004 RMK A01 T01110029  RH  057%=      5-min Rain = 0
KANS 170259Z 03019G25KT 11/03 A3005 RMK A01 T01110029  RH  057%=      5-min Rain = 0
KANS 170300Z 03018G26KT 11/03 A3005 RMK A01 T01110029  RH  057%=      5-min Rain = 0
KANS 170301Z 03016G22KT 11/03 A3005 RMK A01 T01100029  RH  057%=      5-min Rain = 0
KANS 170302Z 03018G24KT 11/03 A3005 RMK A01 T01100029  RH  057%=      5-min Rain = 0
KANS 170303Z 02016G21KT 11/03 A3005 RMK A01 T01090029  RH  058%=      5-min Rain = 0
KANS 170304Z 03020G26KT 11/03 A3005 RMK A01 T01080028  RH  058%=      5-min Rain = 0
KANS 170305Z 03019KT 11/03 A3005 RMK A01 T01080028  RH  058%=      5-min Rain = 0
KANS 170306Z 04021G26KT 11/03 A3005 RMK A01 T01070028  RH  058%=      5-min Rain = 0
KANS 170307Z 03019G25KT 11/03 A3006 RMK A01 T01070028  RH  058%=      5-min Rain = 0
KANS 170308Z 03020G25KT 11/03 A3006 RMK A01 T01070028  RH  058%=      5-min Rain = 0
KANS 170309Z 03017G22KT 11/03 A3006 RMK A01 T01060028  RH  058%=      5-min Rain = 0
KANS 170310Z 03016G21KT 11/03 A3006 RMK A01 T01060028  RH  058%=      5-min Rain = 0
KANS 170311Z 03011G18KT 11/03 A3006 RMK A01 T01060028  RH  059%=      5-min Rain = 0
KANS 170312Z 03017G24KT 11/03 A3006 RMK A01 T01060028  RH  059%=      5-min Rain = 0
KANS 170313Z 03018G23KT 11/03 A3006 RMK A01 T01050028  RH  059%=      5-min Rain = 0
KANS 170314Z 03017KT 11/03 A3006 RMK A01 T01050027  RH  059%=      5-min Rain = 0
KANS 170315Z 03016G21KT 10/03 A3006 RMK A01 T01040027  RH  059%=      5-min Rain = 0
KANS 170316Z 03012KT 10/03 A3006 RMK A01 T01040027  RH  059%=      5-min Rain = 0
KANS 170317Z 03016G21KT 10/03 A3006 RMK A01 T01030027  RH  059%=      5-min Rain = 0
KANS 170318Z 03015G20KT 10/03 A3006 RMK A01 T01030027  RH  059%=      5-min Rain = 0
KANS 170319Z 03018KT 10/03 A3006 RMK A01 T01020027  RH  059%=      5-min Rain = 0
KANS 170320Z 03020G27KT 10/03 A3006 RMK A01 T01020026  RH  059%=      5-min Rain = 0
KANS 170321Z 03019G24KT 10/03 A3006 RMK A01 T01010025  RH  059%=      5-min Rain = 0
KANS 170322Z 03019G25KT 10/03 A3006 RMK A01 T01010025  RH  059%=      5-min Rain = 0
KANS 170323Z 03016G21KT 10/02 A3006 RMK A01 T01000024  RH  059%=      5-min Rain = 0
KANS 170324Z 03022G27KT 10/02 A3006 RMK A01 T01000024  RH  059%=      5-min Rain = 0
KANS 170325Z 03021G26KT 10/02 A3006 RMK A01 T00990023  RH  059%=      5-min Rain = 0
KANS 170326Z 03018G25KT 10/02 A3007 RMK A01 T00990023  RH  059%=      5-min Rain = 0
KANS 170327Z 03016G21KT 10/02 A3007 RMK A01 T00990023  RH  059%=      5-min Rain = 0
KANS 170328Z 03015KT 10/02 A3006 RMK A01 T00990023  RH  059%=      5-min Rain = 0
KANS 170329Z 04014G20KT 10/02 A3006 RMK A01 T00980023  RH  060%=      5-min Rain = 0
KANS 170330Z 04019G26KT 10/02 A3006 RMK A01 T00980023  RH  060%=      5-min Rain = 0
KANS 170331Z 03018G23KT 10/02 A3006 RMK A01 T00970022  RH  060%=      5-min Rain = 0
KANS 170332Z 04019G25KT 10/02 A3006 RMK A01 T00970022  RH  060%=      5-min Rain = 0
KANS 170333Z 04019G28KT 10/02 A3006 RMK A01 T00960022  RH  060%=      5-min Rain = 0
KANS 170334Z 04021G26KT 10/02 A3006 RMK A01 T00960022  RH  060%=      5-min Rain = 0
KANS 170335Z 04018G23KT 10/02 A3006 RMK A01 T00960021  RH  060%=      5-min Rain = 0
KANS 170336Z 04014G19KT 10/02 A3006 RMK A01 T00960022  RH  060%=      5-min Rain = 0
KANS 170337Z 04014G19KT 10/02 A3007 RMK A01 T00950021  RH  060%=      5-min Rain = 0
KANS 170338Z 03019G25KT 10/02 A3007 RMK A01 T00950021  RH  060%=      5-min Rain = 0
KANS 170339Z 03019G25KT 09/02 A3007 RMK A01 T00940021  RH  060%=      5-min Rain = 0
KANS 170340Z 04015G20KT 09/02 A3008 RMK A01 T00940021  RH  060%=      5-min Rain = 0
KANS 170341Z 03015G22KT 09/02 A3008 RMK A01 T00940021  RH  060%=      5-min Rain = 0
KANS 170342Z 03016G21KT 09/02 A3008 RMK A01 T00930020  RH  060%=      5-min Rain = 0
KANS 170343Z 03016G21KT 09/02 A3009 RMK A01 T00930020  RH  060%=      5-min Rain = 0
KANS 170344Z 03017G22KT 09/02 A3009 RMK A01 T00930020  RH  060%=      5-min Rain = 0
KANS 170345Z 03016KT 09/02 A3009 RMK A01 T00930020  RH  060%=      5-min Rain = 0
KANS 170346Z 03016G22KT 09/02 A3009 RMK A01 T00930020  RH  060%=      5-min Rain = 0
KANS 170347Z 04013G19KT 09/02 A3009 RMK A01 T00920020  RH  060%=      5-min Rain = 0
KANS 170348Z 04014G19KT 09/02 A3008 RMK A01 T00920020  RH  061%=      5-min Rain = 0
KANS 170349Z 04011KT 09/02 A3008 RMK A01 T00920020  RH  061%=      5-min Rain = 0
KANS 170350Z 04012KT 09/02 A3008 RMK A01 T00910020  RH  061%=      5-min Rain = 0
KANS 170351Z 04012KT 09/02 A3008 RMK A01 T00910020  RH  061%=      5-min Rain = 0
KANS 170352Z 03015KT 09/02 A3008 RMK A01 T00900020  RH  061%=      5-min Rain = 0
KANS 170353Z 04014KT 09/02 A3008 RMK A01 T00900019  RH  061%=      5-min Rain = 0
KANS 170354Z 03012KT 09/02 A3009 RMK A01 T00900019  RH  061%=      5-min Rain = 0
KANS 170355Z 03015G21KT 09/02 A3009 RMK A01 T00890019  RH  061%=      5-min Rain = 0
KANS 170356Z 03019KT 09/02 A3009 RMK A01 T00890018  RH  061%=      5-min Rain = 0
KANS 170357Z 03018G24KT 09/02 A301 RMK A01 T00880018  RH  061%=      5-min Rain = 0
KANS 170358Z 04021G27KT 09/02 A301 RMK A01 T00880017  RH  061%=      5-min Rain = 0
KANS 170359Z 03019G25KT 09/02 A301 RMK A01 T00880017  RH  061%=      5-min Rain = 0
KANS 170400Z 04015KT 09/02 A301 RMK A01 T00880017  RH  061%=      5-min Rain = 0
KANS 170401Z 04013G20KT 09/02 A301 RMK A01 T00870017  RH  061%=      5-min Rain = 0
KANS 170402Z 04018KT 09/02 A301 RMK A01 T00870017  RH  061%=      5-min Rain = 0
KANS 170403Z 04015G20KT 09/02 A301 RMK A01 T00870016  RH  061%=      5-min Rain = 0
KANS 170404Z 04015KT 09/02 A301 RMK A01 T00870016  RH  061%=      5-min Rain = 0
KANS 170405Z 04015G21KT 09/02 A301 RMK A01 T00870017  RH  061%=      5-min Rain = 0
KANS 170406Z 04013KT 09/02 A301 RMK A01 T00860017  RH  061%=      5-min Rain = 0
KANS 170407Z 04015G22KT 09/02 A301 RMK A01 T00860017  RH  062%=      5-min Rain = 0
KANS 170408Z 04015KT 09/02 A3009 RMK A01 T00860016  RH  062%=      5-min Rain = 0
KANS 170409Z 04015G22KT 09/02 A3009 RMK A01 T00860016  RH  062%=      5-min Rain = 0
KANS 170410Z 04014KT 09/02 A301 RMK A01 T00860016  RH  062%=      5-min Rain = 0
KANS 170411Z 04013KT 09/02 A301 RMK A01 T00860017  RH  062%=      5-min Rain = 0
KANS 170412Z 04017G24KT 09/02 A301 RMK A01 T00860017  RH  062%=      5-min Rain = 0
KANS 170413Z 04018KT 09/02 A301 RMK A01 T00860017  RH  062%=      5-min Rain = 0
KANS 170414Z 04016G23KT 09/02 A301 RMK A01 T00860017  RH  062%=      5-min Rain = 0
KANS 170415Z 03016G24KT 09/02 A301 RMK A01 T00850017  RH  062%=      5-min Rain = 0
KANS 170416Z 04019KT 09/02 A301 RMK A01 T00850017  RH  062%=      5-min Rain = 0
KANS 170417Z 04017KT 09/02 A301 RMK A01 T00850017  RH  062%=      5-min Rain = 0
KANS 170418Z 04013KT 09/02 A301 RMK A01 T00850017  RH  062%=      5-min Rain = 0
KANS 170419Z 04014G19KT 08/02 A301 RMK A01 T00840017  RH  063%=      5-min Rain = 0
KANS 170420Z 04013KT 08/02 A301 RMK A01 T00840018  RH  063%=      5-min Rain = 0
KANS 170421Z 04013G19KT 08/02 A3011 RMK A01 T00840017  RH  063%=      5-min Rain = 0
KANS 170422Z 04017G24KT 08/02 A3011 RMK A01 T00840017  RH  063%=      5-min Rain = 0
KANS 170423Z 04017G22KT 08/02 A3011 RMK A01 T00840017  RH  063%=      5-min Rain = 0
KANS 170424Z 04016KT 08/02 A3011 RMK A01 T00830016  RH  063%=      5-min Rain = 0
KANS 170425Z 04017KT 08/02 A3012 RMK A01 T00830016  RH  063%=      5-min Rain = 0
KANS 170426Z 04017G23KT 08/02 A3012 RMK A01 T00830015  RH  062%=      5-min Rain = 0
KANS 170427Z 04014G20KT 08/02 A3012 RMK A01 T00830015  RH  062%=      5-min Rain = 0
KANS 170428Z 04015KT 08/02 A3013 RMK A01 T00820015  RH  062%=      5-min Rain = 0
KANS 170429Z 04016KT 08/02 A3013 RMK A01 T00830015  RH  062%=      5-min Rain = 0
KANS 170430Z 04015KT 08/02 A3013 RMK A01 T00830015  RH  062%=      5-min Rain = 0
KANS 170431Z 04013KT 08/02 A3013 RMK A01 T00820015  RH  062%=      5-min Rain = 0
KANS 170432Z 04012G17KT 08/02 A3012 RMK A01 T00820015  RH  063%=      5-min Rain = 0
KANS 170433Z 04009KT 08/02 A3012 RMK A01 T00820015  RH  063%=      5-min Rain = 0
KANS 170434Z 04012G22KT 08/02 A3012 RMK A01 T00820015  RH  063%=      5-min Rain = 0
KANS 170435Z 04015G22KT 08/01 A3012 RMK A01 T00810014  RH  063%=      5-min Rain = 0
KANS 170436Z 05020G25KT 08/01 A3011 RMK A01 T00810013  RH  062%=      5-min Rain = 0
KANS 170437Z 04019G24KT 08/01 A3011 RMK A01 T00810012  RH  062%=      5-min Rain = 0
KANS 170438Z 04019G25KT 08/01 A3011 RMK A01 T00810012  RH  062%=      5-min Rain = 0
KANS 170439Z 04017KT 08/01 A3011 RMK A01 T00800012  RH  062%=      5-min Rain = 0
KANS 170440Z 04017KT 08/01 A3011 RMK A01 T00800012  RH  062%=      5-min Rain = 0
KANS 170441Z 04017G23KT 08/01 A3011 RMK A01 T00800012  RH  062%=      5-min Rain = 0
KANS 170442Z 04018G23KT 08/01 A3011 RMK A01 T00800011  RH  062%=      5-min Rain = 0
KANS 170443Z 04014G20KT 08/01 A3011 RMK A01 T00800012  RH  062%=      5-min Rain = 0
KANS 170444Z 04015G21KT 08/01 A3011 RMK A01 T00800012  RH  062%=      5-min Rain = 0
KANS 170445Z 04013G18KT 08/01 A3011 RMK A01 T00800012  RH  062%=      5-min Rain = 0
KANS 170446Z 04011G16KT 08/01 A3012 RMK A01 T00790012  RH  062%=      5-min Rain = 0
KANS 170447Z 04015G20KT 08/01 A3012 RMK A01 T00790012  RH  062%=      5-min Rain = 0
KANS 170448Z 03013KT 08/01 A3012 RMK A01 T00790012  RH  062%=      5-min Rain = 0
KANS 170449Z 03013KT 08/01 A3012 RMK A01 T00790012  RH  062%=      5-min Rain = 0
KANS 170450Z 04013G18KT 08/01 A3013 RMK A01 T00790012  RH  062%=      5-min Rain = 0
KANS 170451Z 04013KT 08/01 A3013 RMK A01 T00790012  RH  063%=      5-min Rain = 0
KANS 170452Z 03011KT 08/01 A3013 RMK A01 T00790012  RH  063%=      5-min Rain = 0
KANS 170453Z 03013KT 08/01 A3013 RMK A01 T00790013  RH  063%=      5-min Rain = 0
KANS 170454Z 04013G18KT 08/01 A3013 RMK A01 T00790013  RH  063%=      5-min Rain = 0
KANS 170455Z 04012KT 08/01 A3012 RMK A01 T00790013  RH  063%=      5-min Rain = 0
KANS 170456Z 05013G18KT 08/01 A3012 RMK A01 T00790012  RH  063%=      5-min Rain = 0
KANS 170457Z 04015G21KT 08/01 A3012 RMK A01 T00790012  RH  063%=      5-min Rain = 0
KANS 170458Z 05016KT 08/01 A3011 RMK A01 T00790012  RH  063%=      5-min Rain = 0
KANS 170459Z 04017KT 08/01 A3011 RMK A01 T00790012  RH  063%=      5-min Rain = 0

Page generated in 0.114 seconds.